| time (UTC) | temp F | wind direction | speed MPH | gust MPH | rain 1hr in | rain 24hr in | rain mn in | humidity % | barometer mb |
| 20260502164324 | 65 | 127 | 5.0 | 9.0 | 0.00 | 0.01 | 0.01 | 63 | 1054.3 |
| 20260502164318 | 65 | 125 | 5.0 | 9.0 | 0.00 | 0.01 | 0.01 | 63 | 1054.3 |
| 20260502164305 | 65 | 64 | 5.0 | 9.0 | 0.00 | 0.01 | 0.01 | 63 | 1054.3 |
| 20260502164039 | 65 | 110 | 5.0 | 9.0 | 0.00 | 0.01 | 0.01 | 62 | 1054.3 |
| 20260502164026 | 65 | 110 | 5.0 | 9.0 | 0.00 | 0.01 | 0.01 | 61 | 1054.3 |
| 20260502163732 | 65 | 112 | 4.0 | 9.0 | 0.00 | 0.01 | 0.01 | 60 | 1054.5 |
| 20260502163632 | 65 | 113 | 4.0 | 9.0 | 0.00 | 0.01 | 0.01 | 60 | 1054.5 |
| 20260502163532 | 65 | 115 | 4.0 | 9.0 | 0.00 | 0.01 | 0.01 | 59 | 1054.5 |
| 20260502163434 | 65 | 131 | 4.0 | 9.0 | 0.00 | 0.01 | 0.01 | 59 | 1054.5 |
| 20260502163336 | 65 | 130 | 5.0 | 9.0 | 0.00 | 0.01 | 0.01 | 60 | 1054.6 |
| 20260502163325 | 65 | 106 | 5.0 | 10.0 | 0.00 | 0.01 | 0.01 | 61 | 1054.6 |
| 20260502163318 | 65 | 106 | 5.0 | 11.0 | 0.00 | 0.01 | 0.01 | 61 | 1054.5 |
| 20260502163306 | 65 | 95 | 5.0 | 11.0 | 0.00 | 0.01 | 0.01 | 62 | 1054.6 |
| 20260502163300 | 65 | 100 | 5.0 | 11.0 | 0.00 | 0.01 | 0.01 | 61 | 1054.6 |
| 20260502163250 | 65 | 100 | 4.0 | 11.0 | 0.00 | 0.01 | 0.01 | 61 | 1054.5 |
| 20260502163238 | 65 | 97 | 4.0 | 11.0 | 0.00 | 0.01 | 0.01 | 61 | 1054.5 |
| 20260502162752 | 66 | 135 | 4.0 | 11.0 | 0.00 | 0.01 | 0.01 | 61 | 1054.5 |
| 20260502162429 | 66 | 133 | 4.0 | 11.0 | 0.00 | 0.01 | 0.01 | 61 | 1054.6 |
| 20260502162357 | 66 | 139 | 4.0 | 11.0 | 0.00 | 0.01 | 0.01 | 61 | 1054.6 |
| 20260502162348 | 66 | 122 | 4.0 | 11.0 | 0.00 | 0.01 | 0.01 | 61 | 1054.6 |
| 20260502162341 | 66 | 134 | 4.0 | 10.0 | 0.00 | 0.01 | 0.01 | 61 | 1054.7 |
| 20260502162331 | 66 | 127 | 4.0 | 10.0 | 0.00 | 0.01 | 0.01 | 61 | 1054.7 |
| 20260502162323 | 66 | 127 | 4.0 | 10.0 | 0.00 | 0.01 | 0.01 | 61 | 1054.7 |
| 20260502162312 | 66 | 127 | 4.0 | 10.0 | 0.00 | 0.01 | 0.01 | 60 | 1054.8 |
| 20260502162042 | 66 | 128 | 5.0 | 10.0 | 0.00 | 0.01 | 0.01 | 60 | 1054.7 |
| 20260502162036 | 66 | 127 | 5.0 | 10.0 | 0.00 | 0.01 | 0.01 | 60 | 1054.7 |
| 20260502161813 | 66 | 120 | 5.0 | 10.0 | 0.00 | 0.01 | 0.01 | 61 | 1054.8 |
| 20260502161805 | 66 | 120 | 5.0 | 11.0 | 0.00 | 0.01 | 0.01 | 61 | 1054.7 |
| 20260502161749 | 66 | 114 | 6.0 | 12.0 | 0.00 | 0.01 | 0.01 | 61 | 1054.8 |
| 20260502161525 | 66 | 115 | 6.0 | 12.0 | 0.00 | 0.01 | 0.01 | 60 | 1054.7 |
| 20260502161257 | 66 | 108 | 6.0 | 12.0 | 0.00 | 0.01 | 0.01 | 59 | 1054.8 |
| 20260502161247 | 66 | 177 | 6.0 | 12.0 | 0.00 | 0.01 | 0.01 | 59 | 1054.8 |
| 20260502161017 | 66 | 122 | 6.0 | 12.0 | 0.00 | 0.01 | 0.01 | 59 | 1054.7 |
| 20260502161006 | 66 | 125 | 6.0 | 12.0 | 0.00 | 0.01 | 0.01 | 59 | 1054.7 |
| 20260502160459 | 67 | 88 | 5.0 | 12.0 | 0.00 | 0.01 | 0.01 | 59 | 1054.7 |
| 20260502160449 | 67 | 124 | 4.0 | 11.0 | 0.00 | 0.01 | 0.01 | 59 | 1054.6 |
| 20260502160442 | 67 | 115 | 4.0 | 11.0 | 0.00 | 0.01 | 0.01 | 59 | 1054.6 |
| 20260502160112 | 67 | 83 | 5.0 | 11.0 | 0.00 | 0.01 | 0.01 | 59 | 1054.6 |
| 20260502152342 | 66 | 243 | 2.0 | 9.0 | 0.00 | 0.01 | 0.01 | 56 | 1055.0 |
| 20260502152251 | 66 | 225 | 2.0 | 9.0 | 0.00 | 0.01 | 0.01 | 57 | 1055.1 |
| 20260502152244 | 66 | 179 | 2.0 | 8.0 | 0.00 | 0.01 | 0.01 | 57 | 1055.1 |
| 20260502152233 | 66 | 160 | 2.0 | 8.0 | 0.00 | 0.01 | 0.01 | 57 | 1055.1 |
| 20260502152224 | 66 | 160 | 2.0 | 8.0 | 0.00 | 0.01 | 0.01 | 57 | 1055.1 |
| 20260502152213 | 67 | 160 | 2.0 | 8.0 | 0.00 | 0.01 | 0.01 | 59 | 1055.2 |
| 20260502152201 | 67 | 98 | 2.0 | 8.0 | 0.00 | 0.01 | 0.01 | 60 | 1055.2 |
| 20260502152154 | 67 | 181 | 2.0 | 5.0 | 0.00 | 0.01 | 0.01 | 60 | 1055.2 |
| 20260502152147 | 67 | 180 | 2.0 | 5.0 | 0.00 | 0.01 | 0.01 | 60 | 1055.2 |
| 20260502151917 | 67 | 180 | 3.0 | 6.0 | 0.00 | 0.01 | 0.01 | 58 | 1055.2 |
| 20260502151906 | 67 | 180 | 3.0 | 6.0 | 0.00 | 0.01 | 0.01 | 58 | 1055.2 |
| 20260502151858 | 67 | 180 | 3.0 | 6.0 | 0.00 | 0.01 | 0.01 | 58 | 1055.1 |
| 20260502151153 | 67 | 178 | 3.0 | 6.0 | 0.00 | 0.01 | 0.01 | 59 | 1055.1 |
| 20260502150829 | 67 | 181 | 3.0 | 6.0 | 0.00 | 0.01 | 0.01 | 58 | 1055.1 |
| 20260502150729 | 67 | 180 | 3.0 | 7.0 | 0.00 | 0.01 | 0.01 | 58 | 1055.1 |
| 20260502150630 | 67 | 187 | 3.0 | 7.0 | 0.00 | 0.01 | 0.01 | 57 | 1055.1 |
| 20260502150605 | 67 | 201 | 3.0 | 7.0 | 0.00 | 0.01 | 0.01 | 57 | 1055.1 |
| 20260502150557 | 67 | 183 | 3.0 | 7.0 | 0.00 | 0.01 | 0.01 | 56 | 1055.1 |
| 20260502150543 | 67 | 183 | 3.0 | 7.0 | 0.00 | 0.01 | 0.01 | 57 | 1055.1 |
| 20260502150300 | 67 | 163 | 3.0 | 7.0 | 0.00 | 0.01 | 0.01 | 57 | 1055.1 |
| 20260502150252 | 67 | 106 | 4.0 | 7.0 | 0.00 | 0.01 | 0.01 | 57 | 1055.1 |
| 20260502130720 | 67 | 112 | 2.0 | 9.0 | 0.00 | 0.01 | 0.01 | 53 | 1056.5 |
| 20260502130618 | 67 | 112 | 2.0 | 9.0 | 0.00 | 0.01 | 0.01 | 54 | 1056.5 |
| 20260502130517 | 67 | 173 | 2.0 | 9.0 | 0.00 | 0.01 | 0.01 | 54 | 1056.5 |
| 20260502130418 | 67 | 174 | 2.0 | 9.0 | 0.00 | 0.01 | 0.01 | 54 | 1056.5 |
| 20260502130350 | 67 | 174 | 2.0 | 7.0 | 0.00 | 0.01 | 0.01 | 55 | 1056.5 |
| 20260502130330 | 67 | 214 | 2.0 | 6.0 | 0.00 | 0.01 | 0.01 | 56 | 1056.5 |
| 20260502130320 | 67 | 225 | 2.0 | 7.0 | 0.00 | 0.01 | 0.01 | 56 | 1056.5 |
| 20260502130313 | 67 | 226 | 2.0 | 7.0 | 0.00 | 0.01 | 0.01 | 57 | 1056.5 |
| 20260502130305 | 67 | 225 | 2.0 | 7.0 | 0.00 | 0.01 | 0.01 | 57 | 1056.5 |
| 20260502130257 | 66 | 225 | 3.0 | 7.0 | 0.00 | 0.01 | 0.01 | 57 | 1056.5 |
| 20260502130240 | 66 | 225 | 3.0 | 7.0 | 0.00 | 0.01 | 0.01 | 57 | 1056.5 |
| 20260502130232 | 66 | 225 | 3.0 | 7.0 | 0.00 | 0.01 | 0.01 | 56 | 1056.5 |
| 20260502130220 | 66 | 225 | 3.0 | 8.0 | 0.00 | 0.01 | 0.01 | 57 | 1056.5 |
| 20260502130213 | 66 | 228 | 3.0 | 8.0 | 0.00 | 0.01 | 0.01 | 59 | 1056.5 |
| 20260502130204 | 66 | 216 | 4.0 | 9.0 | 0.00 | 0.01 | 0.01 | 60 | 1056.5 |
| 20260502123753 | 67 | 133 | 4.0 | 11.0 | 0.00 | 0.01 | 0.01 | 61 | 1056.4 |
| 20260502123746 | 67 | 134 | 4.0 | 11.0 | 0.00 | 0.01 | 0.01 | 61 | 1056.4 |
| 20260502123736 | 67 | 136 | 5.0 | 11.0 | 0.00 | 0.01 | 0.01 | 61 | 1056.4 |
| 20260502123503 | 67 | 138 | 5.0 | 11.0 | 0.00 | 0.01 | 0.01 | 61 | 1056.4 |
| 20260502123448 | 67 | 126 | 5.0 | 11.0 | 0.00 | 0.01 | 0.01 | 60 | 1056.5 |
| 20260502123210 | 67 | 108 | 4.0 | 11.0 | 0.00 | 0.01 | 0.01 | 60 | 1056.5 |
| 20260502123109 | 67 | 68 | 4.0 | 11.0 | 0.00 | 0.01 | 0.01 | 60 | 1056.4 |
| 20260502123009 | 67 | 77 | 4.0 | 11.0 | 0.00 | 0.01 | 0.01 | 59 | 1056.4 |
| 20260502122910 | 67 | 70 | 4.0 | 11.0 | 0.00 | 0.01 | 0.01 | 59 | 1056.3 |
| 20260502122810 | 67 | 66 | 3.0 | 11.0 | 0.00 | 0.01 | 0.01 | 61 | 1056.3 |
| 20260502122709 | 67 | 69 | 4.0 | 11.0 | 0.00 | 0.01 | 0.01 | 62 | 1056.4 |
| 20260502122611 | 67 | 68 | 4.0 | 11.0 | 0.00 | 0.01 | 0.01 | 63 | 1056.4 |
| 20260502122604 | 67 | 67 | 4.0 | 11.0 | 0.00 | 0.01 | 0.01 | 62 | 1056.4 |
| 20260502122556 | 67 | 117 | 4.0 | 11.0 | 0.00 | 0.01 | 0.01 | 62 | 1056.5 |
| 20260502122547 | 67 | 78 | 4.0 | 9.0 | 0.00 | 0.01 | 0.01 | 63 | 1056.4 |
| 20260502122536 | 67 | 79 | 4.0 | 9.0 | 0.00 | 0.01 | 0.01 | 62 | 1056.5 |
| 20260502122529 | 67 | 75 | 4.0 | 9.0 | 0.00 | 0.01 | 0.01 | 62 | 1056.5 |
| 20260502122045 | 67 | 77 | 4.0 | 9.0 | 0.00 | 0.01 | 0.01 | 61 | 1056.6 |
| 20260502122027 | 66 | 77 | 4.0 | 9.0 | 0.00 | 0.01 | 0.01 | 61 | 1056.6 |
| 20260502122011 | 66 | 75 | 4.0 | 9.0 | 0.00 | 0.01 | 0.01 | 61 | 1056.5 |
| 20260502121739 | 66 | 97 | 3.0 | 7.0 | 0.00 | 0.01 | 0.01 | 62 | 1056.6 |
| 20260502121731 | 66 | 109 | 3.0 | 7.0 | 0.00 | 0.01 | 0.01 | 63 | 1056.7 |
| 20260502121501 | 66 | 128 | 3.0 | 7.0 | 0.00 | 0.01 | 0.01 | 63 | 1056.7 |
| 20260502121449 | 66 | 128 | 3.0 | 7.0 | 0.00 | 0.01 | 0.01 | 63 | 1056.8 |
| 20260502121223 | 66 | 118 | 3.0 | 9.0 | 0.00 | 0.01 | 0.01 | 63 | 1056.8 |
| 20260502120902 | 66 | 110 | 3.0 | 9.0 | 0.00 | 0.01 | 0.01 | 64 | 1056.8 |
| 20260502120803 | 66 | 110 | 3.0 | 9.0 | 0.00 | 0.01 | 0.01 | 64 | 1056.9 |
| 20260502120740 | 66 | 75 | 3.0 | 9.0 | 0.00 | 0.01 | 0.01 | 63 | 1056.8 |
| 20260502120733 | 66 | 74 | 3.0 | 9.0 | 0.00 | 0.01 | 0.01 | 63 | 1056.8 |
| 20260502120724 | 66 | 91 | 3.0 | 9.0 | 0.00 | 0.01 | 0.01 | 64 | 1056.8 |
| 20260502120402 | 66 | 125 | 3.0 | 9.0 | 0.00 | 0.01 | 0.01 | 64 | 1056.8 |
| 20260502120347 | 66 | 81 | 4.0 | 9.0 | 0.00 | 0.01 | 0.01 | 65 | 1056.9 |
| 20260502120334 | 66 | 70 | 4.0 | 9.0 | 0.00 | 0.01 | 0.01 | 65 | 1056.9 |
| 20260502120327 | 66 | 71 | 4.0 | 11.0 | 0.00 | 0.01 | 0.01 | 65 | 1056.9 |
| 20260502115921 | 66 | 62 | 4.0 | 11.0 | 0.00 | 0.01 | 0.01 | 66 | 1056.9 |
| 20260502115602 | 66 | 60 | 4.0 | 11.0 | 0.00 | 0.01 | 0.01 | 65 | 1056.8 |
| 20260502115504 | 65 | 60 | 4.0 | 11.0 | 0.00 | 0.01 | 0.01 | 65 | 1056.8 |
| 20260502115404 | 65 | 62 | 4.0 | 11.0 | 0.00 | 0.01 | 0.01 | 65 | 1056.8 |
| 20260502115305 | 65 | 59 | 4.0 | 11.0 | 0.00 | 0.01 | 0.01 | 65 | 1056.8 |
| 20260502115216 | 65 | 52 | 3.0 | 11.0 | 0.00 | 0.01 | 0.01 | 66 | 1056.8 |
| 20260502115203 | 65 | 58 | 3.0 | 8.0 | 0.00 | 0.01 | 0.01 | 66 | 1056.8 |
| 20260502115101 | 65 | 117 | 3.0 | 7.0 | 0.00 | 0.01 | 0.01 | 67 | 1056.9 |
| 20260502115002 | 65 | 115 | 3.0 | 7.0 | 0.00 | 0.01 | 0.01 | 66 | 1056.9 |
| 20260502114902 | 65 | 115 | 3.0 | 7.0 | 0.00 | 0.01 | 0.01 | 66 | 1056.9 |
| 20260502114813 | 65 | 115 | 3.0 | 7.0 | 0.00 | 0.01 | 0.01 | 65 | 1056.9 |
| 20260502114804 | 65 | 115 | 3.0 | 7.0 | 0.00 | 0.01 | 0.01 | 66 | 1057.0 |
| 20260502114757 | 65 | 116 | 3.0 | 8.0 | 0.00 | 0.01 | 0.01 | 66 | 1057.0 |
| 20260502114743 | 65 | 116 | 3.0 | 8.0 | 0.00 | 0.01 | 0.01 | 65 | 1057.0 |
| 20260502114735 | 65 | 116 | 3.0 | 8.0 | 0.00 | 0.01 | 0.01 | 66 | 1056.9 |
| 20260502114451 | 65 | 117 | 3.0 | 8.0 | 0.00 | 0.01 | 0.01 | 66 | 1057.0 |
| 20260502114441 | 65 | 117 | 3.0 | 8.0 | 0.00 | 0.01 | 0.01 | 66 | 1057.0 |
| 20260502113858 | 65 | 122 | 4.0 | 9.0 | 0.00 | 0.01 | 0.01 | 66 | 1057.0 |
| 20260502113758 | 65 | 122 | 4.0 | 9.0 | 0.00 | 0.01 | 0.01 | 66 | 1057.0 |
| 20260502113738 | 65 | 123 | 4.0 | 9.0 | 0.00 | 0.01 | 0.01 | 66 | 1057.0 |
| 20260502113729 | 65 | 127 | 4.0 | 9.0 | 0.00 | 0.01 | 0.01 | 66 | 1057.0 |
| 20260502113717 | 65 | 126 | 4.0 | 9.0 | 0.00 | 0.01 | 0.01 | 66 | 1057.0 |
| 20260502113706 | 65 | 127 | 4.0 | 9.0 | 0.00 | 0.01 | 0.01 | 66 | 1057.0 |
| 20260502113436 | 65 | 128 | 4.0 | 9.0 | 0.00 | 0.01 | 0.01 | 66 | 1057.0 |
| 20260502113157 | 65 | 129 | 4.0 | 9.0 | 0.00 | 0.01 | 0.01 | 66 | 1057.1 |
| 20260502113057 | 65 | 107 | 3.0 | 9.0 | 0.00 | 0.01 | 0.01 | 67 | 1057.1 |
| 20260502112957 | 65 | 104 | 4.0 | 9.0 | 0.00 | 0.01 | 0.01 | 67 | 1057.1 |
| 20260502112858 | 65 | 93 | 4.0 | 9.0 | 0.00 | 0.01 | 0.01 | 66 | 1057.1 |
| 20260502112758 | 65 | 93 | 4.0 | 9.0 | 0.00 | 0.01 | 0.01 | 67 | 1057.1 |
| 20260502112716 | 65 | 92 | 4.0 | 9.0 | 0.00 | 0.01 | 0.01 | 68 | 1057.1 |
| 20260502112657 | 65 | 95 | 4.0 | 9.0 | 0.00 | 0.01 | 0.01 | 68 | 1057.1 |
| 20260502112558 | 65 | 67 | 4.0 | 8.0 | 0.00 | 0.01 | 0.01 | 68 | 1057.1 |
| 20260502112457 | 65 | 67 | 4.0 | 8.0 | 0.00 | 0.01 | 0.01 | 67 | 1057.1 |
| 20260502112358 | 65 | 61 | 4.0 | 8.0 | 0.00 | 0.01 | 0.01 | 67 | 1057.1 |
| 20260502112258 | 65 | 61 | 4.0 | 8.0 | 0.00 | 0.01 | 0.01 | 67 | 1057.1 |
| 20260502112217 | 65 | 62 | 4.0 | 8.0 | 0.00 | 0.01 | 0.01 | 67 | 1057.2 |
| 20260502112159 | 65 | 61 | 4.0 | 8.0 | 0.00 | 0.01 | 0.01 | 67 | 1057.2 |
| 20260502112058 | 65 | 62 | 4.0 | 8.0 | 0.00 | 0.01 | 0.01 | 67 | 1057.2 |
| 20260502112030 | 65 | 91 | 4.0 | 8.0 | 0.00 | 0.01 | 0.01 | 68 | 1057.2 |
| 20260502112019 | 65 | 149 | 4.0 | 8.0 | 0.00 | 0.01 | 0.01 | 68 | 1057.2 |
| 20260502111716 | 65 | 93 | 4.0 | 7.0 | 0.00 | 0.01 | 0.01 | 68 | 1057.2 |
| 20260502111655 | 65 | 93 | 4.0 | 7.0 | 0.00 | 0.01 | 0.01 | 68 | 1057.2 |
| 20260502111555 | 65 | 94 | 4.0 | 7.0 | 0.00 | 0.01 | 0.01 | 68 | 1057.2 |
| 20260502111455 | 65 | 95 | 4.0 | 8.0 | 0.00 | 0.01 | 0.01 | 68 | 1057.2 |
| 20260502111356 | 65 | 97 | 3.0 | 8.0 | 0.00 | 0.01 | 0.01 | 68 | 1057.2 |
| 20260502111332 | 65 | 95 | 3.0 | 8.0 | 0.00 | 0.01 | 0.01 | 68 | 1057.2 |
| 20260502111323 | 65 | 96 | 3.0 | 8.0 | 0.00 | 0.01 | 0.01 | 68 | 1057.2 |
| 20260502111315 | 65 | 95 | 3.0 | 8.0 | 0.00 | 0.01 | 0.01 | 68 | 1057.2 |
| 20260502111032 | 65 | 97 | 3.0 | 8.0 | 0.00 | 0.01 | 0.01 | 68 | 1057.2 |
| 20260502111020 | 65 | 100 | 3.0 | 8.0 | 0.00 | 0.01 | 0.01 | 69 | 1057.3 |
| 20260502111010 | 65 | 99 | 3.0 | 9.0 | 0.00 | 0.01 | 0.01 | 69 | 1057.3 |
| 20260502111000 | 65 | 101 | 3.0 | 9.0 | 0.00 | 0.01 | 0.01 | 69 | 1057.4 |
| 20260502110949 | 65 | 99 | 3.0 | 9.0 | 0.00 | 0.01 | 0.01 | 69 | 1057.4 |
| 20260502110942 | 65 | 99 | 3.0 | 9.0 | 0.00 | 0.01 | 0.01 | 69 | 1057.4 |
| 20260502110929 | 65 | 54 | 3.0 | 9.0 | 0.00 | 0.01 | 0.01 | 68 | 1057.4 |
| 20260502110701 | 65 | 54 | 4.0 | 9.0 | 0.00 | 0.01 | 0.01 | 68 | 1057.4 |
| 20260502110652 | 65 | 54 | 5.0 | 10.0 | 0.00 | 0.01 | 0.01 | 68 | 1057.4 |
| 20260502110644 | 65 | 54 | 5.0 | 10.0 | 0.00 | 0.01 | 0.01 | 69 | 1057.4 |
| 20260502105931 | 65 | 124 | 5.0 | 10.0 | 0.00 | 0.01 | 0.01 | 69 | 1057.3 |
| 20260502105641 | 65 | 124 | 5.0 | 10.0 | 0.00 | 0.01 | 0.01 | 69 | 1057.4 |
| 20260502105609 | 65 | 112 | 5.0 | 10.0 | 0.00 | 0.01 | 0.01 | 68 | 1057.3 |
| 20260502105601 | 65 | 76 | 5.0 | 10.0 | 0.00 | 0.01 | 0.01 | 69 | 1057.3 |
| 20260502105238 | 65 | 80 | 4.0 | 10.0 | 0.00 | 0.01 | 0.01 | 69 | 1057.3 |
| 20260502105206 | 65 | 74 | 4.0 | 10.0 | 0.00 | 0.01 | 0.01 | 70 | 1057.3 |
| 20260502105137 | 65 | 67 | 4.0 | 10.0 | 0.00 | 0.01 | 0.01 | 70 | 1057.3 |
| 20260502105039 | 65 | 144 | 4.0 | 9.0 | 0.00 | 0.01 | 0.01 | 70 | 1057.3 |
| 20260502104938 | 65 | 81 | 4.0 | 9.0 | 0.00 | 0.01 | 0.01 | 70 | 1057.3 |
| 20260502104839 | 65 | 81 | 4.0 | 9.0 | 0.00 | 0.01 | 0.01 | 69 | 1057.4 |
| 20260502104706 | 65 | 79 | 4.0 | 9.0 | 0.00 | 0.01 | 0.01 | 70 | 1057.4 |
| 20260502104635 | 65 | 79 | 4.0 | 9.0 | 0.00 | 0.01 | 0.01 | 70 | 1057.4 |
| 20260502104535 | 65 | 81 | 3.0 | 9.0 | 0.00 | 0.01 | 0.01 | 70 | 1057.4 |
| 20260502104435 | 65 | 128 | 3.0 | 9.0 | 0.00 | 0.01 | 0.01 | 70 | 1057.4 |
| 20260502104336 | 65 | 47 | 4.0 | 7.0 | 0.00 | 0.01 | 0.01 | 70 | 1057.4 |
| 20260502104234 | 65 | 45 | 4.0 | 9.0 | 0.00 | 0.01 | 0.01 | 69 | 1057.4 |
| 20260502104206 | 65 | 44 | 4.0 | 9.0 | 0.00 | 0.01 | 0.01 | 70 | 1057.4 |
| 20260502104134 | 65 | 44 | 5.0 | 9.0 | 0.00 | 0.01 | 0.01 | 70 | 1057.4 |
| 20260502104029 | 65 | 43 | 5.0 | 10.0 | 0.00 | 0.01 | 0.01 | 70 | 1057.4 |
| 20260502103945 | 65 | 124 | 5.0 | 10.0 | 0.00 | 0.01 | 0.01 | 71 | 1057.4 |
| 20260502103936 | 65 | 122 | 5.0 | 10.0 | 0.00 | 0.01 | 0.01 | 72 | 1057.5 |
| 20260502103925 | 65 | 97 | 5.0 | 10.0 | 0.00 | 0.01 | 0.01 | 71 | 1057.4 |
| 20260502103629 | 65 | 74 | 5.0 | 10.0 | 0.00 | 0.01 | 0.01 | 71 | 1057.4 |
| 20260502103529 | 65 | 74 | 5.0 | 10.0 | 0.00 | 0.01 | 0.01 | 71 | 1057.5 |
| 20260502103435 | 65 | 87 | 5.0 | 10.0 | 0.00 | 0.01 | 0.01 | 71 | 1057.5 |
| 20260502103426 | 65 | 90 | 5.0 | 10.0 | 0.00 | 0.01 | 0.01 | 72 | 1057.5 |
| 20260502103417 | 65 | 116 | 5.0 | 10.0 | 0.00 | 0.01 | 0.01 | 72 | 1057.4 |
| 20260502103407 | 65 | 92 | 5.0 | 10.0 | 0.00 | 0.01 | 0.01 | 71 | 1057.4 |
| 20260502103354 | 65 | 95 | 5.0 | 10.0 | 0.00 | 0.01 | 0.01 | 71 | 1057.5 |
| 20260502103344 | 65 | 152 | 5.0 | 9.0 | 0.00 | 0.01 | 0.01 | 72 | 1057.4 |
| 20260502102851 | 64 | 70 | 5.0 | 9.0 | 0.00 | 0.01 | 0.01 | 71 | 1057.4 |
| 20260502102840 | 64 | 73 | 5.0 | 9.0 | 0.00 | 0.01 | 0.01 | 71 | 1057.4 |
| 20260502102549 | 64 | 77 | 5.0 | 9.0 | 0.00 | 0.01 | 0.01 | 71 | 1057.4 |
| 20260502102540 | 64 | 127 | 4.0 | 9.0 | 0.00 | 0.01 | 0.01 | 72 | 1057.4 |
| 20260502102215 | 64 | 114 | 4.0 | 9.0 | 0.00 | 0.01 | 0.01 | 72 | 1057.5 |
| 20260502102209 | 64 | 108 | 4.0 | 9.0 | 0.00 | 0.01 | 0.01 | 72 | 1057.5 |
| 20260502102116 | 64 | 104 | 4.0 | 9.0 | 0.00 | 0.01 | 0.01 | 72 | 1057.5 |
| 20260502102015 | 64 | 122 | 4.0 | 9.0 | 0.00 | 0.01 | 0.01 | 72 | 1057.5 |
| 20260502101916 | 64 | 68 | 4.0 | 9.0 | 0.00 | 0.01 | 0.01 | 72 | 1057.5 |
| 20260502101813 | 64 | 64 | 4.0 | 9.0 | 0.00 | 0.01 | 0.01 | 72 | 1057.5 |
| 20260502101715 | 64 | 64 | 4.0 | 9.0 | 0.00 | 0.01 | 0.01 | 72 | 1057.5 |
| 20260502101708 | 64 | 65 | 4.0 | 9.0 | 0.00 | 0.01 | 0.01 | 72 | 1057.5 |
| 20260502101612 | 64 | 140 | 4.0 | 9.0 | 0.00 | 0.01 | 0.01 | 73 | 1057.5 |
| 20260502101509 | 64 | 141 | 5.0 | 9.0 | 0.00 | 0.01 | 0.01 | 73 | 1057.5 |
| 20260502101458 | 64 | 141 | 5.0 | 9.0 | 0.00 | 0.01 | 0.01 | 72 | 1057.5 |
| 20260502101446 | 64 | 142 | 5.0 | 9.0 | 0.00 | 0.01 | 0.01 | 72 | 1057.5 |
| 20260502101426 | 64 | 80 | 5.0 | 9.0 | 0.00 | 0.01 | 0.01 | 72 | 1057.6 |
| 20260502101105 | 64 | 125 | 4.0 | 9.0 | 0.00 | 0.01 | 0.01 | 72 | 1057.5 |
| 20260502101004 | 64 | 115 | 4.0 | 9.0 | 0.00 | 0.01 | 0.01 | 72 | 1057.6 |
| 20260502100904 | 64 | 84 | 4.0 | 9.0 | 0.00 | 0.01 | 0.01 | 71 | 1057.5 |
| 20260502100803 | 64 | 88 | 4.0 | 9.0 | 0.00 | 0.01 | 0.01 | 71 | 1057.5 |
| 20260502100710 | 64 | 90 | 4.0 | 9.0 | 0.00 | 0.01 | 0.01 | 71 | 1057.5 |
| 20260502100603 | 64 | 90 | 4.0 | 9.0 | 0.00 | 0.01 | 0.01 | 71 | 1057.6 |
| 20260502100503 | 64 | 89 | 3.0 | 8.0 | 0.00 | 0.01 | 0.01 | 71 | 1057.6 |
| 20260502100404 | 64 | 87 | 4.0 | 7.0 | 0.00 | 0.01 | 0.01 | 71 | 1057.6 |
| 20260502100304 | 64 | 86 | 4.0 | 8.0 | 0.00 | 0.01 | 0.01 | 71 | 1057.7 |
| 20260502100208 | 64 | 85 | 4.0 | 8.0 | 0.00 | 0.01 | 0.01 | 71 | 1057.6 |
| 20260502100135 | 64 | 85 | 4.0 | 8.0 | 0.00 | 0.01 | 0.01 | 71 | 1057.6 |
| 20260502100127 | 64 | 85 | 4.0 | 8.0 | 0.00 | 0.01 | 0.01 | 71 | 1057.6 |
| 20260502091431 | 63 | 127 | 3.0 | 7.0 | 0.00 | 0.01 | 0.01 | 78 | 1058.0 |
| 20260502091418 | 63 | 127 | 3.0 | 7.0 | 0.00 | 0.01 | 0.01 | 78 | 1058.0 |
| 20260502091407 | 63 | 128 | 3.0 | 7.0 | 0.00 | 0.01 | 0.01 | 77 | 1058.0 |
| 20260502091143 | 63 | 135 | 3.0 | 9.0 | 0.00 | 0.01 | 0.01 | 76 | 1058.0 |
| 20260502090650 | 63 | 130 | 3.0 | 9.0 | 0.00 | 0.01 | 0.01 | 76 | 1058.0 |
| 20260502090624 | 63 | 131 | 3.0 | 9.0 | 0.00 | 0.01 | 0.01 | 76 | 1057.9 |
| 20260502090617 | 63 | 130 | 3.0 | 9.0 | 0.00 | 0.01 | 0.01 | 76 | 1058.0 |
| 20260502090250 | 63 | 131 | 3.0 | 9.0 | 0.00 | 0.01 | 0.01 | 76 | 1058.0 |
| 20260502090202 | 63 | 131 | 3.0 | 9.0 | 0.00 | 0.01 | 0.01 | 76 | 1058.0 |
| 20260502090149 | 63 | 131 | 3.0 | 9.0 | 0.00 | 0.01 | 0.01 | 76 | 1058.0 |
| 20260502071448 | 60 | 73 | 1.0 | 3.0 | 0.00 | 0.00 | 0.00 | 89 | 1058.1 |
| 20260502071343 | 60 | 73 | 1.0 | 3.0 | 0.00 | 0.00 | 0.00 | 89 | 1058.1 |
| 20260502071247 | 60 | 73 | 1.0 | 3.0 | 0.00 | 0.00 | 0.00 | 89 | 1058.1 |
| 20260502071238 | 60 | 74 | 1.0 | 3.0 | 0.00 | 0.00 | 0.00 | 89 | 1058.2 |
| 20260502071223 | 60 | 73 | 1.0 | 3.0 | 0.00 | 0.00 | 0.00 | 89 | 1058.1 |
| 20260502070950 | 60 | 73 | 1.0 | 3.0 | 0.00 | 0.00 | 0.00 | 89 | 1058.1 |
| 20260502070922 | 60 | 73 | 1.0 | 3.0 | 0.00 | 0.00 | 0.00 | 89 | 1058.1 |
| 20260502070656 | 60 | 73 | 1.0 | 2.0 | 0.00 | 0.00 | 0.00 | 89 | 1058.1 |
| 20260502070338 | 60 | 73 | 1.0 | 3.0 | 0.00 | 0.00 | 0.00 | 89 | 1058.1 |
| 20260502070237 | 60 | 73 | 1.0 | 3.0 | 0.00 | 0.00 | 0.00 | 89 | 1058.1 |
| 20260502070201 | 60 | 73 | 1.0 | 3.0 | 0.00 | 0.00 | 0.00 | 89 | 1058.1 |
| 20260502070138 | 60 | 73 | 1.0 | 3.0 | 0.00 | 0.00 | 0.00 | 89 | 1058.1 |
| 20260502070038 | 60 | 74 | 1.0 | 3.0 | 0.00 | 0.00 | 0.00 | 89 | 1058.0 |
| 20260502065940 | 59 | 74 | 1.0 | 3.0 | 0.00 | 0.00 | 0.00 | 89 | 1058.1 |
| 20260502065838 | 59 | 73 | 1.0 | 3.0 | 0.00 | 0.00 | 0.00 | 89 | 1058.1 |
| 20260502065735 | 59 | 74 | 1.0 | 3.0 | 0.00 | 0.00 | 0.00 | 89 | 1058.1 |
| 20260502065700 | 59 | 73 | 1.0 | 3.0 | 0.00 | 0.00 | 0.00 | 89 | 1058.1 |
| 20260502065639 | 59 | 73 | 1.0 | 3.0 | 0.00 | 0.00 | 0.00 | 89 | 1058.1 |
| 20260502065535 | 59 | 73 | 1.0 | 3.0 | 0.00 | 0.00 | 0.00 | 89 | 1058.1 |
| 20260502065510 | 59 | 73 | 1.0 | 3.0 | 0.00 | 0.00 | 0.00 | 89 | 1058.1 |
| 20260502065459 | 59 | 73 | 1.0 | 3.0 | 0.00 | 0.00 | 0.00 | 89 | 1058.1 |
| 20260502065201 | 59 | 73 | 1.0 | 3.0 | 0.00 | 0.00 | 0.00 | 89 | 1058.2 |
| 20260502065137 | 59 | 73 | 1.0 | 3.0 | 0.00 | 0.00 | 0.00 | 89 | 1058.2 |
| 20260502065038 | 59 | 73 | 1.0 | 3.0 | 0.00 | 0.00 | 0.00 | 89 | 1058.2 |
| 20260502064936 | 59 | 73 | 1.0 | 3.0 | 0.00 | 0.00 | 0.00 | 89 | 1058.2 |
| 20260502064917 | 59 | 73 | 1.0 | 3.0 | 0.00 | 0.00 | 0.00 | 89 | 1058.2 |
| 20260502064904 | 59 | 74 | 1.0 | 3.0 | 0.00 | 0.00 | 0.00 | 89 | 1058.2 |
| 20260502064855 | 59 | 73 | 1.0 | 3.0 | 0.00 | 0.00 | 0.00 | 89 | 1058.2 |
| 20260502064532 | 59 | 74 | 1.0 | 3.0 | 0.00 | 0.00 | 0.00 | 90 | 1058.2 |
| 20260502064432 | 59 | 73 | 1.0 | 3.0 | 0.00 | 0.00 | 0.00 | 90 | 1058.2 |
| 20260502064332 | 59 | 73 | 0.0 | 3.0 | 0.00 | 0.00 | 0.00 | 90 | 1058.2 |
| 20260502064201 | 59 | 73 | 0.0 | 3.0 | 0.00 | 0.00 | 0.00 | 90 | 1058.2 |
| 20260502064135 | 59 | 73 | 0.0 | 3.0 | 0.00 | 0.00 | 0.00 | 90 | 1058.2 |
| 20260502064038 | 59 | 73 | 0.0 | 1.0 | 0.00 | 0.00 | 0.00 | 90 | 1058.2 |
| 20260502064030 | 59 | 73 | 0.0 | 1.0 | 0.00 | 0.00 | 0.00 | 90 | 1058.2 |
| 20260502064021 | 59 | 74 | 0.0 | 1.0 | 0.00 | 0.00 | 0.00 | 90 | 1058.2 |
| 20260502063951 | 59 | 73 | 0.0 | 1.0 | 0.00 | 0.00 | 0.00 | 90 | 1058.2 |
| 20260502063947 | 59 | 73 | 0.0 | 1.0 | 0.00 | 0.00 | 0.00 | 90 | 1058.2 |
| 20260502063932 | 59 | 74 | 0.0 | 1.0 | 0.00 | 0.00 | 0.00 | 90 | 1058.2 |
| 20260502063711 | 59 | 73 | 0.0 | 1.0 | 0.00 | 0.00 | 0.00 | 90 | 1058.2 |
| 20260502063438 | 59 | 74 | 1.0 | 2.0 | 0.00 | 0.00 | 0.00 | 90 | 1058.2 |
| 20260502063210 | 59 | 74 | 1.0 | 2.0 | 0.00 | 0.00 | 0.00 | 90 | 1058.2 |
| 20260502062942 | 59 | 73 | 1.0 | 2.0 | 0.00 | 0.00 | 0.00 | 90 | 1058.2 |
| 20260502062700 | 59 | 73 | 1.0 | 2.0 | 0.00 | 0.00 | 0.00 | 90 | 1058.2 |
| 20260502062619 | 59 | 74 | 1.0 | 2.0 | 0.00 | 0.00 | 0.00 | 90 | 1058.1 |
| 20260502062520 | 59 | 74 | 1.0 | 2.0 | 0.00 | 0.00 | 0.00 | 90 | 1058.1 |
| 20260502062418 | 59 | 74 | 0.0 | 2.0 | 0.00 | 0.00 | 0.00 | 90 | 1058.1 |
| 20260502062403 | 59 | 73 | 0.0 | 2.0 | 0.00 | 0.00 | 0.00 | 90 | 1058.1 |
| 20260502062340 | 59 | 74 | 0.0 | 2.0 | 0.00 | 0.00 | 0.00 | 90 | 1058.1 |
| 20260502062016 | 59 | 73 | 0.0 | 1.0 | 0.00 | 0.00 | 0.00 | 90 | 1058.1 |
| 20260502061914 | 59 | 73 | 0.0 | 2.0 | 0.00 | 0.00 | 0.00 | 90 | 1058.1 |
| 20260502061834 | 59 | 73 | 0.0 | 2.0 | 0.00 | 0.00 | 0.00 | 90 | 1058.1 |
| 20260502061813 | 59 | 73 | 0.0 | 2.0 | 0.00 | 0.00 | 0.00 | 90 | 1058.0 |
| 20260502061801 | 59 | 73 | 0.0 | 2.0 | 0.00 | 0.00 | 0.00 | 90 | 1058.1 |
| 20260502061521 | 59 | 73 | 0.0 | 2.0 | 0.00 | 0.00 | 0.00 | 90 | 1058.0 |
| 20260502061248 | 59 | 74 | 1.0 | 2.0 | 0.00 | 0.00 | 0.00 | 90 | 1058.0 |
| 20260502061233 | 59 | 73 | 0.0 | 2.0 | 0.00 | 0.00 | 0.00 | 90 | 1058.0 |
| 20260502060916 | 59 | 74 | 0.0 | 2.0 | 0.00 | 0.00 | 0.00 | 90 | 1058.0 |
| 20260502060906 | 59 | 73 | 0.0 | 2.0 | 0.00 | 0.00 | 0.00 | 90 | 1058.0 |
| 20260502060848 | 59 | 73 | 0.0 | 2.0 | 0.00 | 0.00 | 0.00 | 90 | 1058.0 |
| 20260502060614 | 59 | 73 | 0.0 | 2.0 | 0.00 | 0.00 | 0.00 | 90 | 1057.9 |
| 20260502060607 | 59 | 74 | 0.0 | 2.0 | 0.00 | 0.00 | 0.00 | 90 | 1057.9 |
| 20260502060552 | 59 | 74 | 0.0 | 2.0 | 0.00 | 0.00 | 0.00 | 90 | 1057.9 |
| 20260502060538 | 59 | 73 | 0.0 | 1.0 | 0.00 | 0.00 | 0.00 | 90 | 1057.9 |
| 20260502060526 | 59 | 73 | 0.0 | 1.0 | 0.00 | 0.00 | 0.00 | 90 | 1057.9 |
| 20260502060302 | 59 | 73 | 0.0 | 1.0 | 0.00 | 0.00 | 0.00 | 90 | 1057.9 |
| 20260502055816 | 59 | 73 | 0.0 | 1.0 | 0.00 | 0.00 | 0.00 | 90 | 1057.9 |
| 20260502055802 | 59 | 73 | 0.0 | 1.0 | 0.00 | 0.00 | 0.00 | 90 | 1057.9 |
| 20260502055748 | 59 | 74 | 0.0 | 1.0 | 0.00 | 0.00 | 0.00 | 90 | 1057.9 |
| 20260502055526 | 59 | 74 | 0.0 | 1.0 | 0.00 | 0.00 | 0.00 | 90 | 1057.9 |
| 20260502055509 | 59 | 73 | 0.0 | 2.0 | 0.00 | 0.00 | 0.00 | 90 | 1057.8 |
| 20260502055455 | 59 | 74 | 0.0 | 2.0 | 0.00 | 0.00 | 0.00 | 90 | 1057.8 |
| 20260502055008 | 59 | 73 | 1.0 | 2.0 | 0.00 | 0.00 | 0.00 | 90 | 1057.8 |
| 20260502054951 | 59 | 73 | 1.0 | 2.0 | 0.00 | 0.00 | 0.00 | 90 | 1057.8 |
| 20260502054727 | 59 | 73 | 1.0 | 2.0 | 0.00 | 0.00 | 0.00 | 90 | 1057.8 |
| 20260502054718 | 59 | 75 | 1.0 | 2.0 | 0.00 | 0.00 | 0.00 | 90 | 1057.8 |
| 20260502054711 | 59 | 73 | 1.0 | 2.0 | 0.00 | 0.00 | 0.00 | 90 | 1057.9 |
| 20260502054703 | 59 | 73 | 1.0 | 2.0 | 0.00 | 0.00 | 0.00 | 90 | 1057.9 |
| 20260502054430 | 59 | 73 | 1.0 | 2.0 | 0.00 | 0.00 | 0.00 | 90 | 1057.9 |
| 20260502054203 | 59 | 73 | 1.0 | 2.0 | 0.00 | 0.00 | 0.00 | 90 | 1057.9 |
| 20260502053937 | 59 | 73 | 2.0 | 2.0 | 0.00 | 0.00 | 0.00 | 90 | 1057.9 |
| 20260502053702 | 59 | 74 | 2.0 | 2.0 | 0.00 | 0.00 | 0.00 | 90 | 1057.9 |
| 20260502053604 | 59 | 73 | 2.0 | 3.0 | 0.00 | 0.00 | 0.00 | 90 | 1057.9 |
| 20260502053504 | 59 | 73 | 2.0 | 3.0 | 0.00 | 0.00 | 0.00 | 90 | 1057.9 |
| 20260502053444 | 59 | 73 | 2.0 | 3.0 | 0.00 | 0.00 | 0.00 | 90 | 1057.9 |
| 20260502053433 | 59 | 73 | 2.0 | 3.0 | 0.00 | 0.00 | 0.00 | 90 | 1057.9 |
| 20260502053201 | 59 | 74 | 2.0 | 3.0 | 0.00 | 0.00 | 0.00 | 90 | 1057.8 |
| 20260502053102 | 59 | 74 | 1.0 | 3.0 | 0.00 | 0.00 | 0.00 | 90 | 1057.8 |
| 20260502053002 | 59 | 74 | 1.0 | 3.0 | 0.00 | 0.00 | 0.00 | 90 | 1057.9 |
| 20260502052902 | 59 | 74 | 1.0 | 3.0 | 0.00 | 0.00 | 0.00 | 90 | 1057.8 |
| 20260502052802 | 59 | 73 | 1.0 | 3.0 | 0.00 | 0.00 | 0.00 | 90 | 1057.8 |
| 20260502052702 | 59 | 73 | 1.0 | 3.0 | 0.00 | 0.00 | 0.00 | 90 | 1057.8 |
| 20260502052602 | 59 | 73 | 0.0 | 2.0 | 0.00 | 0.00 | 0.00 | 90 | 1057.8 |
| 20260502052502 | 59 | 74 | 0.0 | 2.0 | 0.00 | 0.00 | 0.00 | 90 | 1057.8 |
| 20260502052447 | 59 | 74 | 0.0 | 2.0 | 0.00 | 0.00 | 0.00 | 90 | 1057.8 |
| 20260502052437 | 59 | 74 | 0.0 | 2.0 | 0.00 | 0.00 | 0.00 | 90 | 1057.8 |
| 20260502052415 | 59 | 74 | 0.0 | 1.0 | 0.00 | 0.00 | 0.00 | 90 | 1057.8 |
| 20260502052100 | 59 | 73 | 0.0 | 1.0 | 0.00 | 0.00 | 0.00 | 90 | 1057.8 |
| 20260502051957 | 59 | 74 | 0.0 | 1.0 | 0.00 | 0.00 | 0.00 | 90 | 1057.8 |
| 20260502051857 | 59 | 73 | 0.0 | 1.0 | 0.00 | 0.00 | 0.00 | 89 | 1057.8 |
| 20260502051757 | 59 | 73 | 0.0 | 1.0 | 0.00 | 0.00 | 0.00 | 89 | 1057.8 |
| 20260502051704 | 59 | 73 | 0.0 | 1.0 | 0.00 | 0.00 | 0.00 | 89 | 1057.7 |
| 20260502051654 | 59 | 73 | 0.0 | 1.0 | 0.00 | 0.00 | 0.00 | 89 | 1057.7 |
| 20260502051603 | 59 | 74 | 0.0 | 1.0 | 0.00 | 0.00 | 0.00 | 89 | 1057.7 |
| 20260502051554 | 59 | 73 | 0.0 | 1.0 | 0.00 | 0.00 | 0.00 | 89 | 1057.7 |
| 20260502051543 | 59 | 73 | 0.0 | 1.0 | 0.00 | 0.00 | 0.00 | 89 | 1057.8 |
| 20260502051311 | 59 | 73 | 0.0 | 1.0 | 0.00 | 0.00 | 0.00 | 89 | 1057.8 |
| 20260502051307 | 59 | 74 | 0.0 | 1.0 | 0.00 | 0.00 | 0.00 | 89 | 1057.7 |
| 20260502050942 | 59 | 73 | 0.0 | 2.0 | 0.00 | 0.00 | 0.00 | 89 | 1057.8 |
| 20260502050842 | 59 | 73 | 0.0 | 2.0 | 0.00 | 0.00 | 0.00 | 89 | 1057.8 |
| 20260502050742 | 59 | 73 | 1.0 | 2.0 | 0.00 | 0.00 | 0.00 | 89 | 1057.7 |
| 20260502050703 | 59 | 74 | 1.0 | 2.0 | 0.00 | 0.00 | 0.00 | 89 | 1057.7 |
| 20260502050643 | 59 | 73 | 1.0 | 2.0 | 0.00 | 0.00 | 0.00 | 89 | 1057.7 |
| 20260502050531 | 59 | 73 | 1.0 | 2.0 | 0.00 | 0.00 | 0.00 | 89 | 1057.8 |
| 20260502050431 | 59 | 73 | 1.0 | 2.0 | 0.00 | 0.00 | 0.00 | 89 | 1057.8 |
| 20260502050330 | 59 | 73 | 1.0 | 2.0 | 0.00 | 0.00 | 0.00 | 89 | 1057.8 |
| 20260502050202 | 59 | 73 | 1.0 | 2.0 | 0.00 | 0.00 | 0.00 | 89 | 1057.8 |
| 20260502050133 | 59 | 73 | 1.0 | 2.0 | 0.00 | 0.00 | 0.00 | 89 | 1057.8 |
| 20260502050030 | 59 | 73 | 1.0 | 2.0 | 0.00 | 0.00 | 0.00 | 89 | 1057.7 |
| 20260502045930 | 59 | 73 | 0.0 | 2.0 | 0.00 | 0.00 | 0.00 | 89 | 1057.7 |
| 20260502045830 | 59 | 73 | 0.0 | 2.0 | 0.00 | 0.00 | 0.00 | 89 | 1057.7 |
| 20260502045704 | 59 | 74 | 0.0 | 1.0 | 0.00 | 0.00 | 0.00 | 89 | 1057.7 |
| 20260502045629 | 59 | 73 | 0.0 | 1.0 | 0.00 | 0.00 | 0.00 | 89 | 1057.8 |
| 20260502045520 | 59 | 74 | 0.0 | 1.0 | 0.00 | 0.00 | 0.00 | 89 | 1057.7 |
| 20260502045450 | 59 | 73 | 0.0 | 1.0 | 0.00 | 0.00 | 0.00 | 89 | 1057.6 |
| 20260502045443 | 59 | 74 | 0.0 | 1.0 | 0.00 | 0.00 | 0.00 | 89 | 1057.6 |
| 20260502045202 | 59 | 73 | 0.0 | 2.0 | 0.00 | 0.00 | 0.00 | 89 | 1057.6 |
| 20260502045118 | 59 | 74 | 0.0 | 2.0 | 0.00 | 0.00 | 0.00 | 89 | 1057.6 |
| 20260502045010 | 59 | 74 | 1.0 | 2.0 | 0.00 | 0.00 | 0.00 | 88 | 1057.6 |
| 20260502044941 | 59 | 73 | 1.0 | 2.0 | 0.00 | 0.00 | 0.00 | 88 | 1057.6 |
| 20260502044932 | 59 | 73 | 1.0 | 2.0 | 0.00 | 0.00 | 0.00 | 88 | 1057.6 |
| 20260502044918 | 59 | 73 | 1.0 | 4.0 | 0.00 | 0.00 | 0.00 | 88 | 1057.6 |
| 20260502044606 | 59 | 73 | 1.0 | 4.0 | 0.00 | 0.00 | 0.00 | 88 | 1057.7 |
| 20260502044504 | 59 | 74 | 2.0 | 4.0 | 0.00 | 0.00 | 0.00 | 88 | 1057.6 |
| 20260502044404 | 59 | 73 | 2.0 | 4.0 | 0.00 | 0.00 | 0.00 | 88 | 1057.6 |
| 20260502044303 | 59 | 73 | 2.0 | 4.0 | 0.00 | 0.00 | 0.00 | 88 | 1057.6 |
| 20260502044229 | 59 | 74 | 1.0 | 4.0 | 0.00 | 0.00 | 0.00 | 88 | 1057.7 |
| 20260502044220 | 59 | 74 | 2.0 | 4.0 | 0.00 | 0.00 | 0.00 | 88 | 1057.6 |
| 20260502044204 | 59 | 73 | 2.0 | 4.0 | 0.00 | 0.00 | 0.00 | 88 | 1057.6 |
| 20260502043937 | 59 | 73 | 1.0 | 4.0 | 0.00 | 0.00 | 0.00 | 88 | 1057.6 |
| 20260502043917 | 59 | 73 | 1.0 | 3.0 | 0.00 | 0.00 | 0.00 | 88 | 1057.6 |
| 20260502043604 | 59 | 73 | 1.0 | 3.0 | 0.00 | 0.00 | 0.00 | 88 | 1057.6 |
| 20260502043504 | 59 | 73 | 0.0 | 3.0 | 0.00 | 0.00 | 0.00 | 88 | 1057.6 |
| 20260502043404 | 59 | 73 | 0.0 | 3.0 | 0.00 | 0.00 | 0.00 | 88 | 1057.7 |
| 20260502043303 | 59 | 73 | 1.0 | 3.0 | 0.00 | 0.00 | 0.00 | 88 | 1057.7 |
| 20260502043204 | 59 | 73 | 1.0 | 3.0 | 0.00 | 0.00 | 0.00 | 88 | 1057.7 |
| 20260502043104 | 59 | 73 | 1.0 | 3.0 | 0.00 | 0.00 | 0.00 | 88 | 1057.7 |
| 20260502043004 | 59 | 76 | 0.0 | 2.0 | 0.00 | 0.00 | 0.00 | 88 | 1057.7 |
| 20260502042903 | 59 | 74 | 1.0 | 2.0 | 0.00 | 0.00 | 0.00 | 88 | 1057.7 |
| 20260502042834 | 59 | 74 | 1.0 | 2.0 | 0.00 | 0.00 | 0.00 | 88 | 1057.7 |
| 20260502042818 | 59 | 73 | 1.0 | 2.0 | 0.00 | 0.00 | 0.00 | 88 | 1057.6 |
| 20260502042802 | 59 | 74 | 1.0 | 2.0 | 0.00 | 0.00 | 0.00 | 88 | 1057.6 |
| 20260502042753 | 59 | 74 | 1.0 | 2.0 | 0.00 | 0.00 | 0.00 | 88 | 1057.7 |
| 20260502042521 | 59 | 73 | 1.0 | 2.0 | 0.00 | 0.00 | 0.00 | 88 | 1057.6 |
| 20260502042507 | 59 | 73 | 0.0 | 2.0 | 0.00 | 0.00 | 0.00 | 88 | 1057.7 |
| 20260502042242 | 59 | 73 | 0.0 | 2.0 | 0.00 | 0.00 | 0.00 | 88 | 1057.6 |
| 20260502041901 | 59 | 73 | 0.0 | 2.0 | 0.00 | 0.00 | 0.00 | 88 | 1057.6 |
| 20260502041844 | 59 | 73 | 0.0 | 2.0 | 0.00 | 0.00 | 0.00 | 88 | 1057.6 |
| 20260502041830 | 59 | 73 | 0.0 | 2.0 | 0.00 | 0.00 | 0.00 | 88 | 1057.6 |
| 20260502041502 | 59 | 74 | 0.0 | 2.0 | 0.00 | 0.00 | 0.00 | 88 | 1057.6 |
| 20260502041402 | 59 | 73 | 1.0 | 2.0 | 0.00 | 0.00 | 0.00 | 88 | 1057.6 |
| 20260502041300 | 59 | 73 | 1.0 | 2.0 | 0.00 | 0.00 | 0.00 | 88 | 1057.6 |
| 20260502041207 | 59 | 74 | 1.0 | 2.0 | 0.00 | 0.00 | 0.00 | 88 | 1057.6 |
| 20260502041157 | 59 | 73 | 1.0 | 2.0 | 0.00 | 0.00 | 0.00 | 88 | 1057.6 |
| 20260502041052 | 59 | 73 | 1.0 | 2.0 | 0.00 | 0.00 | 0.00 | 88 | 1057.6 |
| 20260502040952 | 59 | 73 | 1.0 | 2.0 | 0.00 | 0.00 | 0.00 | 88 | 1057.6 |
| 20260502040850 | 59 | 73 | 0.0 | 2.0 | 0.00 | 0.00 | 0.00 | 88 | 1057.6 |
| 20260502040750 | 59 | 73 | 0.0 | 2.0 | 0.00 | 0.00 | 0.00 | 88 | 1057.6 |
| 20260502040705 | 59 | 73 | 0.0 | 2.0 | 0.00 | 0.00 | 0.00 | 88 | 1057.6 |
| 20260502040650 | 59 | 73 | 1.0 | 2.0 | 0.00 | 0.00 | 0.00 | 88 | 1057.6 |
| 20260502040549 | 59 | 74 | 1.0 | 2.0 | 0.00 | 0.00 | 0.00 | 88 | 1057.6 |
| 20260502040457 | 59 | 73 | 1.0 | 2.0 | 0.00 | 0.00 | 0.00 | 88 | 1057.7 |
| 20260502040449 | 59 | 73 | 0.0 | 2.0 | 0.00 | 0.00 | 0.00 | 88 | 1057.6 |
| 20260502040444 | 59 | 73 | 0.0 | 2.0 | 0.00 | 0.00 | 0.00 | 88 | 1057.6 |
| 20260502040432 | 59 | 73 | 0.0 | 2.0 | 0.00 | 0.00 | 0.00 | 88 | 1057.7 |
| 20260502040422 | 59 | 73 | 0.0 | 2.0 | 0.00 | 0.00 | 0.00 | 88 | 1057.7 |
| 20260502040150 | 59 | 74 | 0.0 | 2.0 | 0.00 | 0.00 | 0.00 | 88 | 1057.7 |
| 20260502040143 | 59 | 73 | 0.0 | 2.0 | 0.00 | 0.00 | 0.00 | 88 | 1057.7 |
| 20260502035646 | 59 | 74 | 0.0 | 2.0 | 0.00 | 0.00 | 0.00 | 87 | 1057.7 |
| 20260502035546 | 59 | 73 | 0.0 | 2.0 | 0.00 | 0.00 | 0.00 | 87 | 1057.6 |
| 20260502035446 | 59 | 74 | 0.0 | 1.0 | 0.00 | 0.00 | 0.00 | 87 | 1057.6 |
| 20260502035342 | 59 | 73 | 0.0 | 2.0 | 0.00 | 0.00 | 0.00 | 87 | 1057.6 |
| 20260502035318 | 59 | 73 | 0.0 | 2.0 | 0.00 | 0.00 | 0.00 | 87 | 1057.6 |
| 20260502035306 | 59 | 73 | 0.0 | 2.0 | 0.00 | 0.00 | 0.00 | 87 | 1057.6 |
| 20260502034942 | 59 | 73 | 1.0 | 3.0 | 0.00 | 0.00 | 0.00 | 87 | 1057.6 |
| 20260502034934 | 59 | 73 | 1.0 | 3.0 | 0.00 | 0.00 | 0.00 | 87 | 1057.6 |
| 20260502034922 | 59 | 73 | 1.0 | 3.0 | 0.00 | 0.00 | 0.00 | 87 | 1057.6 |
| 20260502034637 | 59 | 73 | 1.0 | 3.0 | 0.00 | 0.00 | 0.00 | 87 | 1057.6 |
| 20260502034538 | 59 | 73 | 1.0 | 3.0 | 0.00 | 0.00 | 0.00 | 87 | 1057.6 |
| 20260502034438 | 59 | 73 | 1.0 | 3.0 | 0.00 | 0.00 | 0.00 | 87 | 1057.6 |
| 20260502034418 | 59 | 74 | 1.0 | 3.0 | 0.00 | 0.00 | 0.00 | 87 | 1057.6 |
| 20260502034410 | 59 | 73 | 1.0 | 3.0 | 0.00 | 0.00 | 0.00 | 87 | 1057.6 |
| 20260502034401 | 59 | 74 | 1.0 | 3.0 | 0.00 | 0.00 | 0.00 | 87 | 1057.6 |
| 20260502034107 | 59 | 73 | 1.0 | 3.0 | 0.00 | 0.00 | 0.00 | 87 | 1057.6 |
| 20260502034058 | 59 | 74 | 1.0 | 3.0 | 0.00 | 0.00 | 0.00 | 87 | 1057.6 |
| 20260502033739 | 59 | 73 | 1.0 | 3.0 | 0.00 | 0.00 | 0.00 | 87 | 1057.5 |
| 20260502033701 | 59 | 73 | 1.0 | 3.0 | 0.00 | 0.00 | 0.00 | 87 | 1057.5 |
| 20260502033638 | 59 | 74 | 1.0 | 3.0 | 0.00 | 0.00 | 0.00 | 87 | 1057.5 |
| 20260502033611 | 59 | 73 | 0.0 | 3.0 | 0.00 | 0.00 | 0.00 | 87 | 1057.6 |
| 20260502033600 | 59 | 73 | 1.0 | 3.0 | 0.00 | 0.00 | 0.00 | 87 | 1057.6 |
| 20260502033238 | 59 | 73 | 1.0 | 3.0 | 0.00 | 0.00 | 0.00 | 87 | 1057.6 |
| 20260502033200 | 59 | 73 | 1.0 | 3.0 | 0.00 | 0.00 | 0.00 | 87 | 1057.6 |
| 20260502033138 | 59 | 73 | 1.0 | 3.0 | 0.00 | 0.00 | 0.00 | 87 | 1057.6 |
| 20260502033036 | 59 | 73 | 1.0 | 3.0 | 0.00 | 0.00 | 0.00 | 87 | 1057.6 |
| 20260502032936 | 59 | 75 | 1.0 | 3.0 | 0.00 | 0.00 | 0.00 | 87 | 1057.6 |
| 20260502032917 | 59 | 73 | 1.0 | 3.0 | 0.00 | 0.00 | 0.00 | 87 | 1057.6 |
| 20260502032908 | 59 | 73 | 1.0 | 3.0 | 0.00 | 0.00 | 0.00 | 87 | 1057.6 |
| 20260502032852 | 59 | 74 | 1.0 | 3.0 | 0.00 | 0.00 | 0.00 | 87 | 1057.6 |
| 20260502032532 | 59 | 73 | 2.0 | 3.0 | 0.00 | 0.00 | 0.00 | 87 | 1057.6 |
| 20260502032434 | 59 | 73 | 2.0 | 3.0 | 0.00 | 0.00 | 0.00 | 87 | 1057.6 |
| 20260502032331 | 59 | 73 | 2.0 | 3.0 | 0.00 | 0.00 | 0.00 | 87 | 1057.6 |
| 20260502032221 | 59 | 73 | 2.0 | 3.0 | 0.00 | 0.00 | 0.00 | 87 | 1057.6 |
| 20260502032215 | 59 | 74 | 2.0 | 3.0 | 0.00 | 0.00 | 0.00 | 87 | 1057.6 |
| 20260502032202 | 59 | 73 | 1.0 | 3.0 | 0.00 | 0.00 | 0.00 | 87 | 1057.6 |
| 20260502032149 | 59 | 73 | 1.0 | 3.0 | 0.00 | 0.00 | 0.00 | 87 | 1057.6 |
| 20260502032139 | 59 | 74 | 1.0 | 3.0 | 0.00 | 0.00 | 0.00 | 87 | 1057.7 |
| 20260502032121 | 59 | 73 | 1.0 | 3.0 | 0.00 | 0.00 | 0.00 | 87 | 1057.7 |
| 20260502031902 | 59 | 73 | 1.0 | 3.0 | 0.00 | 0.00 | 0.00 | 87 | 1057.6 |
| 20260502031849 | 59 | 74 | 1.0 | 3.0 | 0.00 | 0.00 | 0.00 | 87 | 1057.6 |
| 20260502031841 | 59 | 73 | 0.0 | 3.0 | 0.00 | 0.00 | 0.00 | 87 | 1057.6 |
| 20260502031822 | 59 | 73 | 0.0 | 3.0 | 0.00 | 0.00 | 0.00 | 86 | 1057.6 |
| 20260502031337 | 59 | 73 | 0.0 | 2.0 | 0.00 | 0.00 | 0.00 | 86 | 1057.6 |
| 20260502031111 | 59 | 73 | 0.0 | 2.0 | 0.00 | 0.00 | 0.00 | 86 | 1057.7 |
| 20260502030552 | 59 | 73 | 0.0 | 2.0 | 0.00 | 0.00 | 0.00 | 86 | 1057.6 |
| 20260502030542 | 59 | 73 | 1.0 | 2.0 | 0.00 | 0.00 | 0.00 | 86 | 1057.6 |
| 20260502030200 | 59 | 73 | 1.0 | 2.0 | 0.00 | 0.00 | 0.00 | 86 | 1057.6 |
| 20260502030120 | 59 | 73 | 1.0 | 2.0 | 0.00 | 0.00 | 0.00 | 86 | 1057.6 |
| 20260502030023 | 59 | 73 | 1.0 | 2.0 | 0.00 | 0.00 | 0.00 | 86 | 1057.6 |
| 20260502025920 | 59 | 74 | 0.0 | 2.0 | 0.00 | 0.00 | 0.00 | 86 | 1057.6 |
| 20260502025820 | 59 | 74 | 0.0 | 2.0 | 0.00 | 0.00 | 0.00 | 86 | 1057.6 |
| 20260502025701 | 59 | 74 | 1.0 | 2.0 | 0.00 | 0.00 | 0.00 | 86 | 1057.5 |
| 20260502025620 | 59 | 73 | 1.0 | 3.0 | 0.00 | 0.00 | 0.00 | 86 | 1057.6 |
| 20260502025521 | 59 | 74 | 1.0 | 3.0 | 0.00 | 0.00 | 0.00 | 86 | 1057.6 |
| 20260502025420 | 59 | 74 | 0.0 | 3.0 | 0.00 | 0.00 | 0.00 | 86 | 1057.6 |
| 20260502025320 | 59 | 74 | 0.0 | 3.0 | 0.00 | 0.00 | 0.00 | 86 | 1057.6 |
| 20260502025201 | 59 | 73 | 0.0 | 3.0 | 0.00 | 0.00 | 0.00 | 86 | 1057.6 |
| 20260502025120 | 59 | 73 | 1.0 | 3.0 | 0.00 | 0.00 | 0.00 | 86 | 1057.6 |
| 20260502025022 | 59 | 73 | 1.0 | 3.0 | 0.00 | 0.00 | 0.00 | 86 | 1057.6 |
| 20260502024944 | 59 | 74 | 1.0 | 3.0 | 0.00 | 0.00 | 0.00 | 86 | 1057.6 |
| 20260502024935 | 59 | 73 | 1.0 | 3.0 | 0.00 | 0.00 | 0.00 | 86 | 1057.6 |
| 20260502024922 | 59 | 73 | 1.0 | 3.0 | 0.00 | 0.00 | 0.00 | 86 | 1057.6 |
| 20260502024653 | 59 | 74 | 1.0 | 3.0 | 0.00 | 0.00 | 0.00 | 86 | 1057.6 |
| 20260502024643 | 59 | 74 | 1.0 | 3.0 | 0.00 | 0.00 | 0.00 | 86 | 1057.6 |
| 20260502024405 | 59 | 73 | 1.0 | 3.0 | 0.00 | 0.00 | 0.00 | 86 | 1057.6 |
| 20260502024339 | 59 | 73 | 1.0 | 3.0 | 0.00 | 0.00 | 0.00 | 86 | 1057.7 |
| 20260502024025 | 59 | 73 | 2.0 | 3.0 | 0.00 | 0.00 | 0.00 | 86 | 1057.6 |
| 20260502023920 | 59 | 73 | 2.0 | 3.0 | 0.00 | 0.00 | 0.00 | 86 | 1057.6 |
| 20260502023858 | 59 | 74 | 1.0 | 3.0 | 0.00 | 0.00 | 0.00 | 86 | 1057.6 |
| 20260502023841 | 59 | 73 | 2.0 | 3.0 | 0.00 | 0.00 | 0.00 | 86 | 1057.6 |
| 20260502023521 | 59 | 73 | 2.0 | 3.0 | 0.00 | 0.00 | 0.00 | 86 | 1057.6 |
| 20260502023420 | 59 | 73 | 1.0 | 3.0 | 0.00 | 0.00 | 0.00 | 86 | 1057.6 |
| 20260502023320 | 59 | 73 | 1.0 | 3.0 | 0.00 | 0.00 | 0.00 | 86 | 1057.7 |
| 20260502023201 | 59 | 73 | 1.0 | 3.0 | 0.00 | 0.00 | 0.00 | 86 | 1057.6 |
| 20260502023120 | 59 | 73 | 1.0 | 3.0 | 0.00 | 0.00 | 0.00 | 86 | 1057.6 |
| 20260502023018 | 59 | 74 | 1.0 | 3.0 | 0.00 | 0.00 | 0.00 | 86 | 1057.6 |
| 20260502023001 | 59 | 73 | 1.0 | 3.0 | 0.00 | 0.00 | 0.00 | 86 | 1057.6 |
| 20260502022953 | 59 | 73 | 1.0 | 3.0 | 0.00 | 0.00 | 0.00 | 86 | 1057.6 |
| 20260502022939 | 59 | 74 | 1.0 | 3.0 | 0.00 | 0.00 | 0.00 | 86 | 1057.6 |
| 20260502022930 | 59 | 73 | 1.0 | 3.0 | 0.00 | 0.00 | 0.00 | 86 | 1057.6 |
| 20260502022700 | 59 | 73 | 1.0 | 3.0 | 0.00 | 0.00 | 0.00 | 86 | 1057.6 |
| 20260502022436 | 59 | 74 | 1.0 | 3.0 | 0.00 | 0.00 | 0.00 | 86 | 1057.7 |
| 20260502022422 | 59 | 73 | 1.0 | 2.0 | 0.00 | 0.00 | 0.00 | 86 | 1057.7 |
| 20260502022116 | 59 | 73 | 1.0 | 2.0 | 0.00 | 0.00 | 0.00 | 86 | 1057.7 |
| 20260502022019 | 59 | 73 | 1.0 | 4.0 | 0.00 | 0.00 | 0.00 | 86 | 1057.8 |
| 20260502021956 | 59 | 74 | 1.0 | 4.0 | 0.00 | 0.00 | 0.00 | 87 | 1057.8 |
| 20260502021947 | 59 | 73 | 1.0 | 4.0 | 0.00 | 0.00 | 0.00 | 87 | 1057.8 |
| 20260502021702 | 59 | 73 | 1.0 | 4.0 | 0.00 | 0.00 | 0.00 | 87 | 1057.7 |
| 20260502021616 | 59 | 73 | 1.0 | 4.0 | 0.00 | 0.00 | 0.00 | 87 | 1057.8 |
| 20260502021517 | 59 | 73 | 1.0 | 4.0 | 0.00 | 0.00 | 0.00 | 87 | 1057.8 |
| 20260502021417 | 59 | 73 | 2.0 | 4.0 | 0.00 | 0.00 | 0.00 | 87 | 1057.8 |
| 20260502021355 | 59 | 73 | 2.0 | 4.0 | 0.00 | 0.00 | 0.00 | 87 | 1057.8 |
| 20260502021345 | 59 | 73 | 2.0 | 4.0 | 0.00 | 0.00 | 0.00 | 87 | 1057.9 |
| 20260502021338 | 59 | 74 | 2.0 | 4.0 | 0.00 | 0.00 | 0.00 | 87 | 1057.9 |
| 20260502021028 | 59 | 73 | 2.0 | 3.0 | 0.00 | 0.00 | 0.00 | 87 | 1057.9 |
| 20260502021012 | 59 | 75 | 2.0 | 3.0 | 0.00 | 0.00 | 0.00 | 87 | 1057.9 |
| 20260502021003 | 59 | 74 | 1.0 | 3.0 | 0.00 | 0.00 | 0.00 | 86 | 1057.9 |
| 20260502020952 | 59 | 74 | 1.0 | 3.0 | 0.00 | 0.00 | 0.00 | 86 | 1057.9 |
| 20260502020944 | 59 | 73 | 1.0 | 3.0 | 0.00 | 0.00 | 0.00 | 86 | 1057.9 |
| 20260502020707 | 59 | 73 | 1.0 | 3.0 | 0.00 | 0.00 | 0.00 | 86 | 1057.9 |
| 20260502020442 | 59 | 74 | 1.0 | 3.0 | 0.00 | 0.00 | 0.00 | 86 | 1057.9 |
| 20260502020202 | 59 | 73 | 0.0 | 3.0 | 0.00 | 0.00 | 0.00 | 86 | 1057.9 |
| 20260502020118 | 59 | 73 | 0.0 | 3.0 | 0.00 | 0.00 | 0.00 | 86 | 1057.9 |
| 20260502020036 | 59 | 73 | 0.0 | 2.0 | 0.00 | 0.00 | 0.00 | 86 | 1058.0 |
| 20260502015918 | 59 | 74 | 0.0 | 0.0 | 0.00 | 0.00 | 0.00 | 86 | 1057.9 |
| 20260502015817 | 59 | 73 | 0.0 | 0.0 | 0.00 | 0.00 | 0.00 | 86 | 1058.0 |
| 20260502015718 | 59 | 74 | 0.0 | 0.0 | 0.00 | 0.00 | 0.00 | 86 | 1058.0 |
| 20260502015704 | 59 | 73 | 0.0 | 1.0 | 0.00 | 0.00 | 0.00 | 86 | 1058.0 |
| 20260502015613 | 59 | 73 | 0.0 | 2.0 | 0.00 | 0.00 | 0.00 | 86 | 1057.9 |
| 20260502015542 | 59 | 73 | 0.0 | 2.0 | 0.00 | 0.00 | 0.00 | 86 | 1057.9 |
| 20260502015535 | 59 | 73 | 0.0 | 2.0 | 0.00 | 0.00 | 0.00 | 86 | 1058.0 |
| 20260502015221 | 59 | 74 | 0.0 | 2.0 | 0.00 | 0.00 | 0.00 | 86 | 1058.0 |
| 20260502015206 | 59 | 73 | 0.0 | 2.0 | 0.00 | 0.00 | 0.00 | 86 | 1058.0 |
| 20260502015112 | 59 | 73 | 1.0 | 2.0 | 0.00 | 0.00 | 0.00 | 86 | 1058.0 |
| 20260502015011 | 59 | 73 | 1.0 | 3.0 | 0.00 | 0.00 | 0.00 | 86 | 1058.0 |
| 20260502014909 | 59 | 75 | 1.0 | 3.0 | 0.00 | 0.00 | 0.00 | 86 | 1057.9 |
| 20260502014810 | 59 | 73 | 1.0 | 3.0 | 0.00 | 0.00 | 0.00 | 86 | 1058.0 |
| 20260502014702 | 59 | 73 | 1.0 | 3.0 | 0.00 | 0.00 | 0.00 | 86 | 1058.0 |
| 20260502014612 | 59 | 73 | 1.0 | 3.0 | 0.00 | 0.00 | 0.00 | 86 | 1057.9 |
| 20260502014503 | 59 | 73 | 1.0 | 3.0 | 0.00 | 0.00 | 0.00 | 86 | 1058.0 |
| 20260502014444 | 59 | 73 | 1.0 | 4.0 | 0.00 | 0.00 | 0.00 | 86 | 1057.9 |
| 20260502014436 | 59 | 73 | 2.0 | 4.0 | 0.00 | 0.00 | 0.00 | 86 | 1057.9 |
| 20260502014421 | 59 | 73 | 2.0 | 4.0 | 0.00 | 0.00 | 0.00 | 86 | 1057.9 |
| 20260502014104 | 59 | 73 | 2.0 | 4.0 | 0.00 | 0.00 | 0.00 | 86 | 1057.9 |
| 20260502014004 | 59 | 73 | 2.0 | 4.0 | 0.00 | 0.00 | 0.00 | 86 | 1057.9 |
| 20260502013903 | 59 | 74 | 2.0 | 4.0 | 0.00 | 0.00 | 0.00 | 86 | 1057.9 |
| 20260502013803 | 59 | 73 | 1.0 | 4.0 | 0.00 | 0.00 | 0.00 | 86 | 1057.9 |
| 20260502013704 | 59 | 73 | 2.0 | 4.0 | 0.00 | 0.00 | 0.00 | 86 | 1057.9 |
| 20260502013636 | 59 | 74 | 1.0 | 4.0 | 0.00 | 0.00 | 0.00 | 86 | 1057.9 |
| 20260502013627 | 59 | 73 | 1.0 | 4.0 | 0.00 | 0.00 | 0.00 | 86 | 1057.9 |
| 20260502013304 | 59 | 74 | 1.0 | 4.0 | 0.00 | 0.00 | 0.00 | 86 | 1057.9 |
| 20260502013207 | 59 | 73 | 1.0 | 3.0 | 0.00 | 0.00 | 0.00 | 86 | 1057.9 |
| 20260502013203 | 59 | 73 | 1.0 | 3.0 | 0.00 | 0.00 | 0.00 | 86 | 1057.9 |
| 20260502013102 | 59 | 73 | 1.0 | 3.0 | 0.00 | 0.00 | 0.00 | 86 | 1057.9 |
| 20260502013004 | 59 | 73 | 0.0 | 2.0 | 0.00 | 0.00 | 0.00 | 86 | 1057.9 |
| 20260502012900 | 59 | 73 | 0.0 | 2.0 | 0.00 | 0.00 | 0.00 | 86 | 1058.0 |
| 20260502012759 | 59 | 74 | 0.0 | 2.0 | 0.00 | 0.00 | 0.00 | 86 | 1058.0 |
| 20260502012707 | 59 | 74 | 0.0 | 2.0 | 0.00 | 0.00 | 0.00 | 86 | 1058.0 |
| 20260502012658 | 59 | 73 | 0.0 | 2.0 | 0.00 | 0.00 | 0.00 | 86 | 1058.0 |
| 20260502012559 | 59 | 73 | 0.0 | 1.0 | 0.00 | 0.00 | 0.00 | 86 | 1058.1 |
| 20260502012456 | 59 | 73 | 0.0 | 2.0 | 0.00 | 0.00 | 0.00 | 86 | 1058.0 |
| 20260502012354 | 59 | 73 | 0.0 | 2.0 | 0.00 | 0.00 | 0.00 | 86 | 1058.0 |
| 20260502012253 | 59 | 73 | 1.0 | 2.0 | 0.00 | 0.00 | 0.00 | 86 | 1058.1 |
| 20260502012203 | 59 | 73 | 1.0 | 2.0 | 0.00 | 0.00 | 0.00 | 86 | 1058.1 |
| 20260502012154 | 59 | 73 | 1.0 | 2.0 | 0.00 | 0.00 | 0.00 | 86 | 1058.1 |
| 20260502012118 | 59 | 73 | 0.0 | 2.0 | 0.00 | 0.00 | 0.00 | 86 | 1058.1 |
| 20260502012057 | 59 | 73 | 1.0 | 2.0 | 0.00 | 0.00 | 0.00 | 86 | 1058.1 |
| 20260502012042 | 59 | 73 | 1.0 | 2.0 | 0.00 | 0.00 | 0.00 | 86 | 1058.2 |
| 20260502012021 | 59 | 73 | 1.0 | 2.0 | 0.00 | 0.00 | 0.00 | 86 | 1058.1 |
| 20260502011438 | 59 | 73 | 1.0 | 2.0 | 0.00 | 0.00 | 0.00 | 86 | 1058.1 |
| 20260502011338 | 59 | 73 | 1.0 | 3.0 | 0.00 | 0.00 | 0.00 | 86 | 1058.1 |
| 20260502011234 | 59 | 73 | 1.0 | 3.0 | 0.00 | 0.00 | 0.00 | 86 | 1058.1 |
| 20260502011201 | 59 | 73 | 1.0 | 4.0 | 0.00 | 0.00 | 0.00 | 86 | 1058.1 |
| 20260502011133 | 59 | 73 | 1.0 | 4.0 | 0.00 | 0.00 | 0.00 | 86 | 1058.1 |
| 20260502011034 | 59 | 73 | 1.0 | 5.0 | 0.00 | 0.00 | 0.00 | 86 | 1058.1 |
| 20260502010933 | 59 | 76 | 2.0 | 5.0 | 0.00 | 0.00 | 0.00 | 86 | 1058.1 |
| 20260502010832 | 59 | 74 | 2.0 | 7.0 | 0.00 | 0.00 | 0.00 | 86 | 1058.1 |
| 20260502010752 | 59 | 74 | 2.0 | 7.0 | 0.00 | 0.00 | 0.00 | 86 | 1058.1 |
| 20260502010740 | 59 | 73 | 2.0 | 7.0 | 0.00 | 0.00 | 0.00 | 86 | 1058.1 |
| 20260502010736 | 60 | 73 | 3.0 | 7.0 | 0.00 | 0.00 | 0.00 | 86 | 1058.2 |
| 20260502010717 | 60 | 73 | 3.0 | 7.0 | 0.00 | 0.00 | 0.00 | 86 | 1058.1 |
| 20260502010438 | 60 | 74 | 2.0 | 7.0 | 0.00 | 0.00 | 0.00 | 86 | 1058.1 |
| 20260502010419 | 60 | 73 | 2.0 | 7.0 | 0.00 | 0.00 | 0.00 | 86 | 1058.1 |
| 20260502010410 | 60 | 73 | 2.0 | 7.0 | 0.00 | 0.00 | 0.00 | 86 | 1058.1 |
| 20260502010145 | 60 | 73 | 2.0 | 7.0 | 0.00 | 0.00 | 0.00 | 86 | 1058.1 |
| 20260502010134 | 60 | 74 | 1.0 | 7.0 | 0.00 | 0.00 | 0.00 | 86 | 1058.1 |
| 20260502010121 | 60 | 148 | 1.0 | 3.0 | 0.00 | 0.00 | 0.00 | 87 | 1058.1 |
| 20260502005856 | 60 | 148 | 1.0 | 3.0 | 0.00 | 0.00 | 0.00 | 87 | 1058.1 |
| 20260502005624 | 60 | 149 | 1.0 | 3.0 | 0.00 | 0.00 | 0.00 | 87 | 1058.1 |
| 20260502005616 | 60 | 149 | 1.0 | 3.0 | 0.00 | 0.00 | 0.00 | 87 | 1058.1 |
| 20260502005607 | 60 | 149 | 1.0 | 3.0 | 0.00 | 0.00 | 0.00 | 87 | 1058.1 |
| 20260502005338 | 60 | 149 | 1.0 | 3.0 | 0.00 | 0.00 | 0.00 | 87 | 1058.1 |
| 20260502005321 | 60 | 149 | 0.0 | 2.0 | 0.00 | 0.00 | 0.00 | 87 | 1058.2 |
| 20260502004815 | 60 | 149 | 0.0 | 2.0 | 0.00 | 0.00 | 0.00 | 87 | 1058.1 |
| 20260502004807 | 60 | 149 | 0.0 | 2.0 | 0.00 | 0.00 | 0.00 | 87 | 1058.1 |
| 20260502004754 | 60 | 149 | 0.0 | 2.0 | 0.00 | 0.00 | 0.00 | 87 | 1058.1 |
| 20260502004213 | 60 | 149 | 0.0 | 1.0 | 0.00 | 0.00 | 0.00 | 87 | 1058.2 |
| 20260502004201 | 60 | 148 | 0.0 | 0.0 | 0.00 | 0.00 | 0.00 | 87 | 1058.2 |
| 20260502004112 | 60 | 149 | 0.0 | 1.0 | 0.00 | 0.00 | 0.00 | 87 | 1058.2 |
| 20260502004015 | 60 | 149 | 0.0 | 2.0 | 0.00 | 0.00 | 0.00 | 87 | 1058.2 |
| 20260502003911 | 60 | 149 | 0.0 | 2.0 | 0.00 | 0.00 | 0.00 | 87 | 1058.2 |
| 20260502003842 | 59 | 149 | 1.0 | 3.0 | 0.00 | 0.00 | 0.00 | 87 | 1058.3 |
| 20260502003822 | 59 | 149 | 1.0 | 3.0 | 0.00 | 0.00 | 0.00 | 87 | 1058.3 |
| 20260502003508 | 59 | 149 | 1.0 | 3.0 | 0.00 | 0.00 | 0.00 | 87 | 1058.3 |
| 20260502003441 | 59 | 149 | 1.0 | 3.0 | 0.00 | 0.00 | 0.00 | 87 | 1058.3 |
| 20260502003432 | 59 | 149 | 1.0 | 3.0 | 0.00 | 0.00 | 0.00 | 87 | 1058.3 |
| 20260502003417 | 59 | 149 | 1.0 | 3.0 | 0.00 | 0.00 | 0.00 | 87 | 1058.4 |
| 20260502003106 | 59 | 149 | 1.0 | 3.0 | 0.00 | 0.00 | 0.00 | 87 | 1058.4 |
| 20260502003017 | 59 | 149 | 0.0 | 3.0 | 0.00 | 0.00 | 0.00 | 87 | 1058.4 |
| 20260502002903 | 59 | 149 | 0.0 | 3.0 | 0.00 | 0.00 | 0.00 | 87 | 1058.4 |
| 20260502002803 | 59 | 149 | 0.0 | 3.0 | 0.00 | 0.00 | 0.00 | 87 | 1058.4 |
| 20260502002714 | 59 | 150 | 0.0 | 0.0 | 0.00 | 0.00 | 0.00 | 87 | 1058.4 |
| 20260502002703 | 59 | 150 | 0.0 | 0.0 | 0.00 | 0.00 | 0.00 | 87 | 1058.4 |
| 20260502002601 | 59 | 150 | 0.0 | 0.0 | 0.00 | 0.00 | 0.00 | 87 | 1058.4 |
| 20260502002501 | 59 | 150 | 0.0 | 0.0 | 0.00 | 0.00 | 0.00 | 87 | 1058.4 |
| 20260502002400 | 59 | 149 | 0.0 | 0.0 | 0.00 | 0.00 | 0.00 | 86 | 1058.4 |
| 20260502002258 | 59 | 149 | 0.0 | 0.0 | 0.00 | 0.00 | 0.00 | 86 | 1058.4 |
| 20260502002207 | 59 | 150 | 0.0 | 0.0 | 0.00 | 0.00 | 0.00 | 87 | 1058.5 |
| 20260502002159 | 59 | 150 | 0.0 | 0.0 | 0.00 | 0.00 | 0.00 | 87 | 1058.5 |
| 20260502002059 | 59 | 150 | 0.0 | 0.0 | 0.00 | 0.00 | 0.00 | 87 | 1058.5 |
| 20260502001957 | 59 | 149 | 0.0 | 0.0 | 0.00 | 0.00 | 0.00 | 87 | 1058.5 |
| 20260502001854 | 59 | 149 | 0.0 | 0.0 | 0.00 | 0.00 | 0.00 | 87 | 1058.6 |
| 20260502001753 | 59 | 150 | 0.0 | 0.0 | 0.00 | 0.00 | 0.00 | 87 | 1058.5 |
| 20260502001704 | 59 | 149 | 0.0 | 0.0 | 0.00 | 0.00 | 0.00 | 87 | 1058.6 |
| 20260502001653 | 59 | 150 | 0.0 | 0.0 | 0.00 | 0.00 | 0.00 | 87 | 1058.6 |
| 20260502001553 | 59 | 150 | 0.0 | 0.0 | 0.00 | 0.00 | 0.00 | 87 | 1058.6 |
| 20260502001517 | 59 | 149 | 0.0 | 0.0 | 0.00 | 0.00 | 0.00 | 87 | 1058.6 |
| 20260502001509 | 59 | 150 | 0.0 | 0.0 | 0.00 | 0.00 | 0.00 | 87 | 1058.7 |
| 20260502001202 | 59 | 149 | 0.0 | 0.0 | 0.00 | 0.00 | 0.00 | 87 | 1058.7 |
| 20260502001147 | 59 | 149 | 0.0 | 0.0 | 0.00 | 0.00 | 0.00 | 87 | 1058.7 |
| 20260502001047 | 59 | 149 | 0.0 | 0.0 | 0.00 | 0.00 | 0.00 | 87 | 1058.7 |
| 20260502000948 | 59 | 149 | 0.0 | 0.0 | 0.00 | 0.00 | 0.00 | 87 | 1058.7 |
| 20260502000848 | 59 | 150 | 0.0 | 0.0 | 0.00 | 0.00 | 0.00 | 87 | 1058.7 |
| 20260502000742 | 59 | 149 | 0.0 | 0.0 | 0.00 | 0.00 | 0.00 | 86 | 1058.8 |
| 20260502000701 | 59 | 149 | 0.0 | 0.0 | 0.00 | 0.00 | 0.00 | 86 | 1058.8 |
| 20260502000640 | 59 | 150 | 0.0 | 0.0 | 0.00 | 0.00 | 0.00 | 86 | 1058.9 |
| 20260502000541 | 59 | 150 | 0.0 | 0.0 | 0.00 | 0.00 | 0.00 | 86 | 1058.9 |
| 20260502000441 | 59 | 150 | 0.0 | 0.0 | 0.00 | 0.00 | 0.00 | 86 | 1058.8 |
| 20260502000424 | 59 | 149 | 0.0 | 0.0 | 0.00 | 0.00 | 0.00 | 86 | 1058.9 |
| 20260502000402 | 59 | 149 | 0.0 | 0.0 | 0.00 | 0.00 | 0.00 | 86 | 1058.9 |
| 20260502000058 | 59 | 150 | 0.0 | 0.0 | 0.00 | 0.00 | 0.00 | 86 | 1059.0 |
| 20260502000043 | 59 | 150 | 0.0 | 0.0 | 0.00 | 0.00 | 0.00 | 86 | 1059.0 |
| 20260502000032 | 59 | 149 | 0.0 | 0.0 | 0.00 | 0.00 | 0.00 | 86 | 1059.0 |
| 20260502000022 | 59 | 150 | 0.0 | 0.0 | 0.00 | 0.00 | 0.00 | 86 | 1059.0 |
| 20260501235756 | 59 | 150 | 0.0 | 0.0 | 0.00 | 0.00 | 0.00 | 86 | 1059.0 |
| 20260501235434 | 59 | 150 | 0.0 | 0.0 | 0.00 | 0.00 | 0.00 | 86 | 1059.0 |
| 20260501235331 | 59 | 149 | 0.0 | 0.0 | 0.00 | 0.00 | 0.00 | 86 | 1059.0 |
| 20260501235233 | 59 | 150 | 0.0 | 0.0 | 0.00 | 0.00 | 0.00 | 86 | 1059.0 |
| 20260501235201 | 59 | 150 | 0.0 | 0.0 | 0.00 | 0.00 | 0.00 | 86 | 1059.0 |
| 20260501235131 | 59 | 150 | 0.0 | 0.0 | 0.00 | 0.00 | 0.00 | 86 | 1059.1 |
| 20260501235032 | 59 | 150 | 0.0 | 0.0 | 0.00 | 0.00 | 0.00 | 86 | 1059.0 |
| 20260501234955 | 59 | 149 | 0.0 | 0.0 | 0.00 | 0.00 | 0.00 | 86 | 1059.0 |
| 20260501234948 | 59 | 150 | 0.0 | 0.0 | 0.00 | 0.00 | 0.00 | 86 | 1059.0 |
| 20260501234701 | 59 | 149 | 0.0 | 0.0 | 0.00 | 0.00 | 0.00 | 86 | 1059.0 |
| 20260501234627 | 59 | 149 | 0.0 | 0.0 | 0.00 | 0.00 | 0.00 | 86 | 1059.0 |
| 20260501234527 | 59 | 150 | 0.0 | 0.0 | 0.00 | 0.00 | 0.00 | 86 | 1059.1 |
| 20260501234427 | 59 | 150 | 0.0 | 0.0 | 0.00 | 0.00 | 0.00 | 86 | 1059.1 |
| 20260501234327 | 59 | 150 | 0.0 | 0.0 | 0.00 | 0.00 | 0.00 | 86 | 1059.0 |
| 20260501234231 | 59 | 149 | 0.0 | 0.0 | 0.00 | 0.00 | 0.00 | 86 | 1059.0 |
| 20260501234201 | 59 | 150 | 0.0 | 0.0 | 0.00 | 0.00 | 0.00 | 86 | 1059.0 |
| 20260501234127 | 59 | 149 | 0.0 | 0.0 | 0.00 | 0.00 | 0.00 | 86 | 1059.0 |
| 20260501234026 | 59 | 149 | 0.0 | 0.0 | 0.00 | 0.00 | 0.00 | 86 | 1059.0 |
| 20260501233952 | 59 | 150 | 0.0 | 0.0 | 0.00 | 0.00 | 0.00 | 86 | 1059.0 |
| 20260501233946 | 59 | 150 | 0.0 | 0.0 | 0.00 | 0.00 | 0.00 | 86 | 1059.1 |
| 20260501233701 | 59 | 150 | 0.0 | 0.0 | 0.00 | 0.00 | 0.00 | 86 | 1059.0 |
| 20260501233620 | 59 | 149 | 0.0 | 0.0 | 0.00 | 0.00 | 0.00 | 86 | 1059.0 |
| 20260501233522 | 59 | 149 | 0.0 | 0.0 | 0.00 | 0.00 | 0.00 | 86 | 1059.1 |
| 20260501233420 | 59 | 150 | 0.0 | 0.0 | 0.00 | 0.00 | 0.00 | 86 | 1059.1 |
| 20260501233317 | 59 | 149 | 0.0 | 0.0 | 0.00 | 0.00 | 0.00 | 86 | 1059.1 |
| 20260501233201 | 59 | 150 | 0.0 | 0.0 | 0.00 | 0.00 | 0.00 | 86 | 1059.1 |
| 20260501233115 | 59 | 150 | 0.0 | 0.0 | 0.00 | 0.00 | 0.00 | 86 | 1059.1 |
| 20260501233009 | 59 | 149 | 0.0 | 0.0 | 0.00 | 0.00 | 0.00 | 86 | 1059.1 |
| 20260501232909 | 59 | 150 | 0.0 | 0.0 | 0.00 | 0.00 | 0.00 | 86 | 1059.1 |
| 20260501232807 | 59 | 149 | 0.0 | 0.0 | 0.00 | 0.00 | 0.00 | 86 | 1059.1 |
| 20260501232701 | 59 | 149 | 0.0 | 0.0 | 0.00 | 0.00 | 0.00 | 86 | 1059.1 |
| 20260501232607 | 59 | 150 | 0.0 | 0.0 | 0.00 | 0.00 | 0.00 | 86 | 1059.1 |
| 20260501232508 | 59 | 150 | 0.0 | 0.0 | 0.00 | 0.00 | 0.00 | 86 | 1059.1 |
| 20260501232407 | 59 | 149 | 0.0 | 0.0 | 0.00 | 0.00 | 0.00 | 86 | 1059.1 |
| 20260501232307 | 59 | 150 | 0.0 | 0.0 | 0.00 | 0.00 | 0.00 | 86 | 1059.1 |
| 20260501232202 | 59 | 150 | 0.0 | 0.0 | 0.00 | 0.00 | 0.00 | 86 | 1059.1 |
| 20260501232127 | 59 | 149 | 0.0 | 0.0 | 0.00 | 0.00 | 0.00 | 86 | 1059.1 |
| 20260501232118 | 59 | 150 | 0.0 | 0.0 | 0.00 | 0.00 | 0.00 | 86 | 1059.1 |
| 20260501232104 | 59 | 149 | 0.0 | 0.0 | 0.00 | 0.00 | 0.00 | 86 | 1059.1 |
| 20260501232055 | 59 | 150 | 0.0 | 0.0 | 0.00 | 0.00 | 0.00 | 86 | 1059.1 |
| 20260501231828 | 59 | 149 | 0.0 | 0.0 | 0.00 | 0.00 | 0.00 | 86 | 1059.1 |
| 20260501231507 | 59 | 149 | 0.0 | 0.0 | 0.00 | 0.00 | 0.00 | 86 | 1059.1 |
| 20260501231406 | 59 | 150 | 0.0 | 0.0 | 0.00 | 0.00 | 0.00 | 86 | 1059.0 |
| 20260501231307 | 59 | 150 | 0.0 | 0.0 | 0.00 | 0.00 | 0.00 | 86 | 1059.0 |
| 20260501231210 | 59 | 150 | 0.0 | 0.0 | 0.00 | 0.00 | 0.00 | 86 | 1059.0 |
| 20260501231201 | 59 | 149 | 0.0 | 0.0 | 0.00 | 0.00 | 0.00 | 86 | 1059.0 |
| 20260501231107 | 59 | 150 | 0.0 | 0.0 | 0.00 | 0.00 | 0.00 | 86 | 1059.0 |
| 20260501231007 | 59 | 149 | 0.0 | 0.0 | 0.00 | 0.00 | 0.00 | 86 | 1059.0 |
| 20260501230907 | 59 | 150 | 0.0 | 0.0 | 0.00 | 0.00 | 0.00 | 86 | 1059.0 |
| 20260501230807 | 58 | 150 | 0.0 | 0.0 | 0.00 | 0.00 | 0.00 | 86 | 1059.0 |
| 20260501230710 | 58 | 150 | 0.0 | 0.0 | 0.00 | 0.00 | 0.00 | 86 | 1059.0 |
| 20260501230701 | 58 | 149 | 0.0 | 0.0 | 0.00 | 0.00 | 0.00 | 86 | 1059.0 |
| 20260501230638 | 58 | 150 | 0.0 | 0.0 | 0.00 | 0.00 | 0.00 | 86 | 1059.0 |
| 20260501230627 | 58 | 149 | 0.0 | 0.0 | 0.00 | 0.00 | 0.00 | 86 | 1059.0 |
| 20260501230304 | 58 | 149 | 0.0 | 0.0 | 0.00 | 0.00 | 0.00 | 86 | 1059.1 |
| 20260501230234 | 58 | 149 | 0.0 | 0.0 | 0.00 | 0.00 | 0.00 | 86 | 1059.1 |
| 20260501230226 | 58 | 149 | 0.0 | 0.0 | 0.00 | 0.00 | 0.00 | 86 | 1059.1 |
| 20260501230212 | 58 | 150 | 0.0 | 0.0 | 0.00 | 0.00 | 0.00 | 86 | 1059.1 |
| 20260501225937 | 58 | 149 | 0.0 | 0.0 | 0.00 | 0.00 | 0.00 | 86 | 1059.1 |
| 20260501225702 | 58 | 149 | 0.0 | 0.0 | 0.00 | 0.00 | 0.00 | 86 | 1059.1 |
| 20260501225557 | 58 | 149 | 0.0 | 0.0 | 0.00 | 0.00 | 0.00 | 86 | 1059.1 |
| 20260501225456 | 58 | 150 | 0.0 | 0.0 | 0.00 | 0.00 | 0.00 | 86 | 1059.1 |
| 20260501225357 | 58 | 150 | 0.0 | 0.0 | 0.00 | 0.00 | 0.00 | 86 | 1059.1 |
| 20260501225259 | 58 | 149 | 0.0 | 0.0 | 0.00 | 0.00 | 0.00 | 86 | 1059.1 |
| 20260501225204 | 58 | 149 | 0.0 | 0.0 | 0.00 | 0.00 | 0.00 | 86 | 1059.1 |
| 20260501225156 | 58 | 149 | 0.0 | 0.0 | 0.00 | 0.00 | 0.00 | 86 | 1059.1 |
| 20260501225050 | 58 | 149 | 0.0 | 0.0 | 0.00 | 0.00 | 0.00 | 86 | 1059.1 |
| 20260501224950 | 58 | 150 | 0.0 | 0.0 | 0.00 | 0.00 | 0.00 | 86 | 1059.1 |
| 20260501224934 | 58 | 150 | 0.0 | 0.0 | 0.00 | 0.00 | 0.00 | 86 | 1059.1 |
| 20260501224923 | 58 | 149 | 0.0 | 0.0 | 0.00 | 0.00 | 0.00 | 86 | 1059.1 |
| 20260501224650 | 58 | 149 | 0.0 | 0.0 | 0.00 | 0.00 | 0.00 | 86 | 1059.1 |
| 20260501224545 | 58 | 150 | 0.0 | 0.0 | 0.00 | 0.00 | 0.00 | 86 | 1059.0 |
| 20260501224444 | 58 | 149 | 0.0 | 0.0 | 0.00 | 0.00 | 0.00 | 86 | 1059.0 |
| 20260501224344 | 58 | 150 | 0.0 | 0.0 | 0.00 | 0.00 | 0.00 | 86 | 1059.0 |
| 20260501224240 | 58 | 149 | 0.0 | 0.0 | 0.00 | 0.00 | 0.00 | 86 | 1059.0 |
| 20260501224236 | 58 | 150 | 0.0 | 0.0 | 0.00 | 0.00 | 0.00 | 86 | 1059.0 |
| 20260501224226 | 58 | 150 | 0.0 | 0.0 | 0.00 | 0.00 | 0.00 | 86 | 1059.0 |
| 20260501224214 | 58 | 149 | 0.0 | 0.0 | 0.00 | 0.00 | 0.00 | 86 | 1059.0 |
| 20260501224205 | 58 | 149 | 0.0 | 0.0 | 0.00 | 0.00 | 0.00 | 86 | 1059.0 |
| 20260501224158 | 58 | 149 | 0.0 | 0.0 | 0.00 | 0.00 | 0.00 | 86 | 1059.0 |
| 20260501223927 | 58 | 149 | 0.0 | 0.0 | 0.00 | 0.00 | 0.00 | 86 | 1059.0 |
| 20260501223918 | 58 | 150 | 0.0 | 0.0 | 0.00 | 0.00 | 0.00 | 86 | 1059.0 |
| 20260501223420 | 58 | 149 | 0.0 | 0.0 | 0.00 | 0.00 | 0.00 | 86 | 1059.0 |
| 20260501223132 | 58 | 150 | 0.0 | 0.0 | 0.00 | 0.00 | 0.00 | 86 | 1059.0 |
| 20260501223032 | 58 | 149 | 0.0 | 0.0 | 0.00 | 0.00 | 0.00 | 86 | 1059.0 |
| 20260501222932 | 58 | 150 | 0.0 | 0.0 | 0.00 | 0.00 | 0.00 | 86 | 1059.0 |
| 20260501222832 | 58 | 149 | 0.0 | 0.0 | 0.00 | 0.00 | 0.00 | 86 | 1059.0 |
| 20260501222731 | 58 | 149 | 0.0 | 0.0 | 0.00 | 0.00 | 0.00 | 86 | 1059.0 |
| 20260501222700 | 58 | 150 | 0.0 | 0.0 | 0.00 | 0.00 | 0.00 | 86 | 1059.0 |
| 20260501222632 | 58 | 149 | 0.0 | 0.0 | 0.00 | 0.00 | 0.00 | 86 | 1059.0 |
| 20260501222603 | 58 | 150 | 0.0 | 0.0 | 0.00 | 0.00 | 0.00 | 86 | 1059.0 |
| 20260501222555 | 58 | 150 | 0.0 | 0.0 | 0.00 | 0.00 | 0.00 | 86 | 1059.0 |
| 20260501222228 | 58 | 150 | 0.0 | 1.0 | 0.00 | 0.00 | 0.00 | 85 | 1059.0 |
| 20260501222131 | 58 | 150 | 0.0 | 1.0 | 0.00 | 0.00 | 0.00 | 85 | 1059.0 |
| 20260501222118 | 58 | 149 | 0.0 | 1.0 | 0.00 | 0.00 | 0.00 | 85 | 1059.0 |
| 20260501222112 | 58 | 149 | 0.0 | 1.0 | 0.00 | 0.00 | 0.00 | 85 | 1059.0 |
| 20260501222059 | 58 | 150 | 0.0 | 1.0 | 0.00 | 0.00 | 0.00 | 85 | 1059.0 |
| 20260501222051 | 58 | 150 | 0.0 | 1.0 | 0.00 | 0.00 | 0.00 | 85 | 1059.0 |
| 20260501221811 | 58 | 149 | 0.0 | 1.0 | 0.00 | 0.00 | 0.00 | 85 | 1059.0 |
| 20260501221541 | 58 | 150 | 1.0 | 2.0 | 0.00 | 0.00 | 0.00 | 85 | 1059.0 |
| 20260501221218 | 58 | 150 | 1.0 | 2.0 | 0.00 | 0.00 | 0.00 | 85 | 1058.9 |
| 20260501221156 | 58 | 150 | 1.0 | 2.0 | 0.00 | 0.00 | 0.00 | 85 | 1058.9 |
| 20260501221116 | 58 | 150 | 1.0 | 2.0 | 0.00 | 0.00 | 0.00 | 85 | 1059.0 |
| 20260501221016 | 58 | 150 | 1.0 | 2.0 | 0.00 | 0.00 | 0.00 | 85 | 1059.0 |
| 20260501220915 | 58 | 149 | 1.0 | 2.0 | 0.00 | 0.00 | 0.00 | 85 | 1059.0 |
| 20260501220815 | 58 | 150 | 1.0 | 3.0 | 0.00 | 0.00 | 0.00 | 85 | 1059.0 |
| 20260501220715 | 58 | 150 | 1.0 | 3.0 | 0.00 | 0.00 | 0.00 | 85 | 1059.0 |
| 20260501220656 | 58 | 149 | 1.0 | 3.0 | 0.00 | 0.00 | 0.00 | 85 | 1059.0 |
| 20260501220613 | 58 | 149 | 1.0 | 3.0 | 0.00 | 0.00 | 0.00 | 85 | 1059.0 |
| 20260501220515 | 58 | 150 | 1.0 | 3.0 | 0.00 | 0.00 | 0.00 | 85 | 1059.0 |
| 20260501220438 | 58 | 149 | 1.0 | 3.0 | 0.00 | 0.00 | 0.00 | 85 | 1059.0 |
| 20260501220431 | 58 | 149 | 1.0 | 3.0 | 0.00 | 0.00 | 0.00 | 85 | 1059.0 |
| 20260501220146 | 58 | 150 | 2.0 | 3.0 | 0.00 | 0.00 | 0.00 | 86 | 1059.0 |
| 20260501220135 | 58 | 149 | 2.0 | 3.0 | 0.00 | 0.00 | 0.00 | 86 | 1059.0 |
| 20260501215810 | 58 | 149 | 2.0 | 5.0 | 0.00 | 0.00 | 0.00 | 86 | 1059.0 |
| 20260501215707 | 58 | 149 | 2.0 | 5.0 | 0.00 | 0.00 | 0.00 | 86 | 1059.0 |
| 20260501215650 | 58 | 149 | 2.0 | 5.0 | 0.00 | 0.00 | 0.00 | 86 | 1059.0 |
| 20260501215607 | 58 | 149 | 2.0 | 5.0 | 0.00 | 0.00 | 0.00 | 86 | 1059.0 |
| 20260501215537 | 58 | 150 | 2.0 | 5.0 | 0.00 | 0.00 | 0.00 | 86 | 1059.0 |
| 20260501215528 | 58 | 150 | 2.0 | 5.0 | 0.00 | 0.00 | 0.00 | 86 | 1059.0 |
| 20260501215204 | 58 | 150 | 2.0 | 5.0 | 0.00 | 0.00 | 0.00 | 86 | 1059.0 |
| 20260501215151 | 58 | 150 | 2.0 | 5.0 | 0.00 | 0.00 | 0.00 | 86 | 1059.0 |
| 20260501215104 | 58 | 149 | 2.0 | 5.0 | 0.00 | 0.00 | 0.00 | 86 | 1059.0 |
| 20260501215004 | 58 | 150 | 2.0 | 5.0 | 0.00 | 0.00 | 0.00 | 86 | 1059.0 |
| 20260501214901 | 58 | 150 | 2.0 | 5.0 | 0.00 | 0.00 | 0.00 | 85 | 1059.0 |
| 20260501214801 | 58 | 150 | 2.0 | 5.0 | 0.00 | 0.00 | 0.00 | 85 | 1059.0 |
| 20260501214651 | 58 | 149 | 2.0 | 5.0 | 0.00 | 0.00 | 0.00 | 85 | 1059.0 |
| 20260501214633 | 58 | 150 | 3.0 | 5.0 | 0.00 | 0.00 | 0.00 | 85 | 1059.0 |
| 20260501214623 | 58 | 149 | 3.0 | 5.0 | 0.00 | 0.00 | 0.00 | 85 | 1059.0 |
| 20260501214253 | 58 | 149 | 3.0 | 5.0 | 0.00 | 0.00 | 0.00 | 85 | 1059.1 |
| 20260501214159 | 58 | 149 | 3.0 | 5.0 | 0.00 | 0.00 | 0.00 | 85 | 1059.1 |
| 20260501214149 | 58 | 149 | 3.0 | 5.0 | 0.00 | 0.00 | 0.00 | 85 | 1059.0 |
| 20260501214053 | 58 | 150 | 3.0 | 5.0 | 0.00 | 0.00 | 0.00 | 85 | 1059.0 |
| 20260501213954 | 57 | 150 | 3.0 | 5.0 | 0.00 | 0.00 | 0.00 | 85 | 1059.0 |
| 20260501213853 | 57 | 149 | 3.0 | 5.0 | 0.00 | 0.00 | 0.00 | 85 | 1059.0 |
| 20260501213752 | 57 | 149 | 3.0 | 5.0 | 0.00 | 0.00 | 0.00 | 85 | 1059.0 |
| 20260501213643 | 57 | 149 | 3.0 | 5.0 | 0.00 | 0.00 | 0.00 | 85 | 1059.0 |
| 20260501213549 | 57 | 149 | 2.0 | 5.0 | 0.00 | 0.00 | 0.00 | 85 | 1059.0 |
| 20260501213448 | 57 | 148 | 2.0 | 5.0 | 0.00 | 0.00 | 0.00 | 85 | 1059.0 |
| 20260501213424 | 57 | 148 | 2.0 | 5.0 | 0.00 | 0.00 | 0.00 | 85 | 1059.0 |
| 20260501213417 | 57 | 149 | 2.0 | 5.0 | 0.00 | 0.00 | 0.00 | 85 | 1059.0 |
| 20260501213352 | 57 | 149 | 2.0 | 5.0 | 0.00 | 0.00 | 0.00 | 85 | 1059.0 |
| 20260501213348 | 57 | 148 | 2.0 | 5.0 | 0.00 | 0.00 | 0.00 | 85 | 1059.0 |
| 20260501213117 | 57 | 148 | 2.0 | 3.0 | 0.00 | 0.00 | 0.00 | 85 | 1059.0 |
| 20260501212833 | 57 | 145 | 2.0 | 3.0 | 0.00 | 0.00 | 0.00 | 85 | 1059.0 |
| 20260501212826 | 57 | 145 | 2.0 | 3.0 | 0.00 | 0.00 | 0.00 | 85 | 1059.0 |
| 20260501212245 | 58 | 145 | 2.0 | 3.0 | 0.00 | 0.00 | 0.00 | 84 | 1059.1 |
| 20260501212137 | 58 | 145 | 2.0 | 4.0 | 0.00 | 0.00 | 0.00 | 84 | 1059.1 |
| 20260501212046 | 58 | 145 | 2.0 | 4.0 | 0.00 | 0.00 | 0.00 | 84 | 1059.1 |
| 20260501211945 | 58 | 145 | 2.0 | 4.0 | 0.00 | 0.00 | 0.00 | 84 | 1059.1 |
| 20260501211845 | 58 | 145 | 2.0 | 4.0 | 0.00 | 0.00 | 0.00 | 84 | 1059.0 |
| 20260501211826 | 58 | 145 | 2.0 | 4.0 | 0.00 | 0.00 | 0.00 | 84 | 1059.0 |
| 20260501211809 | 58 | 145 | 2.0 | 4.0 | 0.00 | 0.00 | 0.00 | 84 | 1059.0 |
| 20260501211803 | 58 | 145 | 2.0 | 4.0 | 0.00 | 0.00 | 0.00 | 84 | 1059.1 |
| 20260501211753 | 58 | 145 | 2.0 | 4.0 | 0.00 | 0.00 | 0.00 | 84 | 1059.1 |
| 20260501211740 | 58 | 145 | 2.0 | 4.0 | 0.00 | 0.00 | 0.00 | 84 | 1059.1 |
| 20260501211512 | 58 | 145 | 2.0 | 4.0 | 0.00 | 0.00 | 0.00 | 83 | 1059.1 |
| 20260501210937 | 58 | 144 | 2.0 | 4.0 | 0.00 | 0.00 | 0.00 | 83 | 1059.1 |
| 20260501210837 | 58 | 145 | 2.0 | 4.0 | 0.00 | 0.00 | 0.00 | 83 | 1059.1 |
| 20260501210737 | 58 | 144 | 2.0 | 4.0 | 0.00 | 0.00 | 0.00 | 83 | 1059.0 |
| 20260501210657 | 58 | 144 | 2.0 | 4.0 | 0.00 | 0.00 | 0.00 | 83 | 1059.1 |
| 20260501210648 | 58 | 144 | 2.0 | 4.0 | 0.00 | 0.00 | 0.00 | 83 | 1059.1 |
| 20260501210635 | 58 | 144 | 1.0 | 4.0 | 0.00 | 0.00 | 0.00 | 83 | 1059.0 |
| 20260501210404 | 58 | 143 | 1.0 | 3.0 | 0.00 | 0.00 | 0.00 | 83 | 1059.1 |
| 20260501210352 | 58 | 142 | 1.0 | 3.0 | 0.00 | 0.00 | 0.00 | 83 | 1059.1 |
| 20260501210033 | 58 | 142 | 1.0 | 2.0 | 0.00 | 0.00 | 0.00 | 83 | 1059.0 |
| 20260501205932 | 58 | 142 | 1.0 | 2.0 | 0.00 | 0.00 | 0.00 | 83 | 1059.1 |
| 20260501205831 | 59 | 141 | 1.0 | 2.0 | 0.00 | 0.00 | 0.00 | 83 | 1059.1 |
| 20260501205732 | 59 | 142 | 1.0 | 2.0 | 0.00 | 0.00 | 0.00 | 83 | 1059.1 |
| 20260501205631 | 59 | 142 | 1.0 | 2.0 | 0.00 | 0.00 | 0.00 | 83 | 1059.1 |
| 20260501205531 | 59 | 142 | 1.0 | 3.0 | 0.00 | 0.00 | 0.00 | 83 | 1059.0 |
| 20260501205432 | 59 | 142 | 1.0 | 3.0 | 0.00 | 0.00 | 0.00 | 83 | 1059.0 |
| 20260501205332 | 59 | 142 | 1.0 | 3.0 | 0.00 | 0.00 | 0.00 | 83 | 1059.1 |
| 20260501205231 | 59 | 142 | 2.0 | 3.0 | 0.00 | 0.00 | 0.00 | 82 | 1059.1 |
| 20260501205141 | 59 | 144 | 2.0 | 3.0 | 0.00 | 0.00 | 0.00 | 82 | 1059.1 |
| 20260501205132 | 59 | 142 | 2.0 | 3.0 | 0.00 | 0.00 | 0.00 | 82 | 1059.1 |
| 20260501205031 | 59 | 142 | 2.0 | 3.0 | 0.00 | 0.00 | 0.00 | 82 | 1059.1 |
| 20260501204931 | 59 | 143 | 2.0 | 3.0 | 0.00 | 0.00 | 0.00 | 82 | 1059.2 |
| 20260501204831 | 59 | 142 | 2.0 | 3.0 | 0.00 | 0.00 | 0.00 | 82 | 1059.1 |
| 20260501204731 | 59 | 142 | 2.0 | 3.0 | 0.00 | 0.00 | 0.00 | 82 | 1059.2 |
| 20260501204640 | 59 | 141 | 2.0 | 3.0 | 0.00 | 0.00 | 0.00 | 82 | 1059.2 |
| 20260501204631 | 59 | 142 | 2.0 | 3.0 | 0.00 | 0.00 | 0.00 | 82 | 1059.2 |
| 20260501204528 | 59 | 142 | 2.0 | 3.0 | 0.00 | 0.00 | 0.00 | 82 | 1059.1 |
| 20260501204427 | 59 | 142 | 2.0 | 3.0 | 0.00 | 0.00 | 0.00 | 82 | 1059.1 |
| 20260501204327 | 59 | 141 | 2.0 | 3.0 | 0.00 | 0.00 | 0.00 | 82 | 1059.1 |
| 20260501204227 | 59 | 142 | 2.0 | 3.0 | 0.00 | 0.00 | 0.00 | 82 | 1059.1 |
| 20260501204154 | 59 | 143 | 2.0 | 3.0 | 0.00 | 0.00 | 0.00 | 82 | 1059.1 |
| 20260501204145 | 59 | 142 | 2.0 | 3.0 | 0.00 | 0.00 | 0.00 | 82 | 1059.1 |
| 20260501204139 | 60 | 142 | 1.0 | 3.0 | 0.00 | 0.00 | 0.00 | 82 | 1059.1 |
| 20260501204124 | 60 | 142 | 1.0 | 3.0 | 0.00 | 0.00 | 0.00 | 81 | 1059.1 |
| 20260501204114 | 60 | 142 | 1.0 | 3.0 | 0.00 | 0.00 | 0.00 | 81 | 1059.0 |
| 20260501203620 | 60 | 142 | 1.0 | 3.0 | 0.00 | 0.00 | 0.00 | 81 | 1059.1 |
| 20260501203521 | 60 | 142 | 1.0 | 3.0 | 0.00 | 0.00 | 0.00 | 81 | 1059.0 |
| 20260501203420 | 60 | 142 | 0.0 | 3.0 | 0.00 | 0.00 | 0.00 | 81 | 1059.0 |
| 20260501203321 | 60 | 143 | 0.0 | 3.0 | 0.00 | 0.00 | 0.00 | 81 | 1059.0 |
| 20260501203219 | 60 | 143 | 0.0 | 2.0 | 0.00 | 0.00 | 0.00 | 81 | 1059.0 |
| 20260501203130 | 60 | 141 | 0.0 | 2.0 | 0.00 | 0.00 | 0.00 | 81 | 1059.0 |
| 20260501203118 | 60 | 142 | 0.0 | 2.0 | 0.00 | 0.00 | 0.00 | 81 | 1059.0 |
| 20260501203021 | 60 | 142 | 0.0 | 1.0 | 0.00 | 0.00 | 0.00 | 81 | 1059.0 |
| 20260501202925 | 60 | 142 | 0.0 | 1.0 | 0.00 | 0.00 | 0.00 | 81 | 1059.0 |
| 20260501202917 | 60 | 142 | 0.0 | 2.0 | 0.00 | 0.00 | 0.00 | 81 | 1058.9 |
| 20260501202907 | 60 | 142 | 0.0 | 2.0 | 0.00 | 0.00 | 0.00 | 81 | 1059.0 |
| 20260501202855 | 60 | 142 | 0.0 | 2.0 | 0.00 | 0.00 | 0.00 | 81 | 1058.9 |
| 20260501202629 | 60 | 142 | 0.0 | 2.0 | 0.00 | 0.00 | 0.00 | 81 | 1059.0 |
| 20260501202620 | 60 | 143 | 0.0 | 2.0 | 0.00 | 0.00 | 0.00 | 81 | 1059.0 |
| 20260501202609 | 60 | 142 | 0.0 | 2.0 | 0.00 | 0.00 | 0.00 | 81 | 1059.0 |
| 20260501202113 | 60 | 141 | 0.0 | 2.0 | 0.00 | 0.00 | 0.00 | 81 | 1059.0 |
| 20260501202049 | 60 | 143 | 1.0 | 3.0 | 0.00 | 0.00 | 0.00 | 81 | 1058.9 |
| 20260501202039 | 60 | 141 | 1.0 | 4.0 | 0.00 | 0.00 | 0.00 | 81 | 1058.9 |
| 20260501201756 | 60 | 142 | 1.0 | 4.0 | 0.00 | 0.00 | 0.00 | 81 | 1059.0 |
| 20260501201741 | 60 | 142 | 1.0 | 4.0 | 0.00 | 0.00 | 0.00 | 81 | 1058.9 |
| 20260501201415 | 60 | 142 | 1.0 | 4.0 | 0.00 | 0.00 | 0.00 | 81 | 1058.9 |
| 20260501201315 | 61 | 142 | 1.0 | 4.0 | 0.00 | 0.00 | 0.00 | 81 | 1058.9 |
| 20260501201213 | 61 | 142 | 1.0 | 4.0 | 0.00 | 0.00 | 0.00 | 81 | 1058.8 |
| 20260501201127 | 61 | 142 | 1.0 | 4.0 | 0.00 | 0.00 | 0.00 | 81 | 1058.8 |
| 20260501201112 | 61 | 141 | 1.0 | 4.0 | 0.00 | 0.00 | 0.00 | 81 | 1058.8 |
| 20260501201019 | 61 | 142 | 1.0 | 4.0 | 0.00 | 0.00 | 0.00 | 81 | 1058.8 |
| 20260501200914 | 61 | 142 | 1.0 | 4.0 | 0.00 | 0.00 | 0.00 | 81 | 1058.8 |
| 20260501200813 | 61 | 142 | 1.0 | 4.0 | 0.00 | 0.00 | 0.00 | 81 | 1058.8 |
| 20260501200713 | 61 | 142 | 1.0 | 4.0 | 0.00 | 0.00 | 0.00 | 81 | 1058.8 |
| 20260501200615 | 61 | 142 | 1.0 | 4.0 | 0.00 | 0.00 | 0.00 | 81 | 1058.8 |
| 20260501200525 | 61 | 142 | 1.0 | 4.0 | 0.00 | 0.00 | 0.00 | 80 | 1058.8 |
| 20260501200445 | 61 | 142 | 0.0 | 4.0 | 0.00 | 0.00 | 0.00 | 80 | 1058.8 |
| 20260501200435 | 61 | 142 | 0.0 | 3.0 | 0.00 | 0.00 | 0.00 | 80 | 1058.8 |
| 20260501200151 | 61 | 142 | 0.0 | 3.0 | 0.00 | 0.00 | 0.00 | 80 | 1058.8 |
| 20260501200147 | 61 | 141 | 0.0 | 3.0 | 0.00 | 0.00 | 0.00 | 80 | 1058.8 |
| 20260501200138 | 61 | 142 | 1.0 | 3.0 | 0.00 | 0.00 | 0.00 | 80 | 1058.8 |
| 20260501200124 | 61 | 142 | 1.0 | 3.0 | 0.00 | 0.00 | 0.00 | 80 | 1058.8 |
| 20260501195851 | 61 | 142 | 1.0 | 4.0 | 0.00 | 0.00 | 0.00 | 80 | 1058.9 |
| 20260501195615 | 61 | 141 | 1.0 | 4.0 | 0.00 | 0.00 | 0.00 | 80 | 1058.8 |
| 20260501195517 | 61 | 142 | 1.0 | 4.0 | 0.00 | 0.00 | 0.00 | 80 | 1058.8 |
| 20260501195413 | 61 | 142 | 1.0 | 4.0 | 0.00 | 0.00 | 0.00 | 80 | 1058.8 |
| 20260501195402 | 61 | 142 | 1.0 | 4.0 | 0.00 | 0.00 | 0.00 | 80 | 1058.8 |
| 20260501195349 | 61 | 142 | 2.0 | 4.0 | 0.00 | 0.00 | 0.00 | 79 | 1058.8 |
| 20260501195109 | 61 | 141 | 2.0 | 4.0 | 0.00 | 0.00 | 0.00 | 79 | 1058.7 |
| 20260501195026 | 61 | 142 | 2.0 | 5.0 | 0.00 | 0.00 | 0.00 | 79 | 1058.8 |
| 20260501195018 | 61 | 142 | 2.0 | 5.0 | 0.00 | 0.00 | 0.00 | 79 | 1058.8 |
| 20260501195002 | 61 | 142 | 2.0 | 5.0 | 0.00 | 0.00 | 0.00 | 79 | 1058.7 |
| 20260501194954 | 61 | 142 | 2.0 | 5.0 | 0.00 | 0.00 | 0.00 | 79 | 1058.7 |
| 20260501194731 | 61 | 142 | 2.0 | 5.0 | 0.00 | 0.00 | 0.00 | 79 | 1058.7 |
| 20260501194409 | 61 | 142 | 2.0 | 5.0 | 0.00 | 0.00 | 0.00 | 79 | 1058.7 |
| 20260501194311 | 61 | 141 | 2.0 | 5.0 | 0.00 | 0.00 | 0.00 | 79 | 1058.6 |
| 20260501194209 | 61 | 141 | 2.0 | 5.0 | 0.00 | 0.00 | 0.00 | 78 | 1058.6 |
| 20260501194144 | 61 | 142 | 2.0 | 5.0 | 0.00 | 0.00 | 0.00 | 78 | 1058.6 |
| 20260501194138 | 62 | 143 | 2.0 | 5.0 | 0.00 | 0.00 | 0.00 | 78 | 1058.6 |
| 20260501194130 | 62 | 143 | 2.0 | 4.0 | 0.00 | 0.00 | 0.00 | 78 | 1058.5 |
| 20260501193809 | 62 | 143 | 2.0 | 5.0 | 0.00 | 0.00 | 0.00 | 78 | 1058.5 |
| 20260501193733 | 62 | 143 | 2.0 | 5.0 | 0.00 | 0.00 | 0.00 | 78 | 1058.5 |
| 20260501193717 | 62 | 143 | 2.0 | 5.0 | 0.00 | 0.00 | 0.00 | 78 | 1058.5 |
| 20260501193705 | 62 | 144 | 2.0 | 5.0 | 0.00 | 0.00 | 0.00 | 78 | 1058.5 |
| 20260501193650 | 62 | 143 | 2.0 | 5.0 | 0.00 | 0.00 | 0.00 | 77 | 1058.5 |
| 20260501193110 | 62 | 143 | 2.0 | 5.0 | 0.00 | 0.00 | 0.00 | 77 | 1058.4 |
| 20260501193012 | 62 | 143 | 2.0 | 5.0 | 0.00 | 0.00 | 0.00 | 77 | 1058.4 |
| 20260501192944 | 62 | 143 | 2.0 | 5.0 | 0.00 | 0.00 | 0.00 | 77 | 1058.4 |
| 20260501192934 | 62 | 144 | 2.0 | 5.0 | 0.00 | 0.00 | 0.00 | 77 | 1058.4 |
| 20260501192916 | 62 | 145 | 2.0 | 5.0 | 0.00 | 0.00 | 0.00 | 77 | 1058.4 |
| 20260501192902 | 62 | 144 | 2.0 | 7.0 | 0.00 | 0.00 | 0.00 | 77 | 1058.4 |
| 20260501192641 | 62 | 145 | 2.0 | 7.0 | 0.00 | 0.00 | 0.00 | 77 | 1058.4 |
| 20260501192403 | 62 | 145 | 2.0 | 7.0 | 0.00 | 0.00 | 0.00 | 77 | 1058.3 |
| 20260501192347 | 62 | 145 | 2.0 | 7.0 | 0.00 | 0.00 | 0.00 | 76 | 1058.3 |
| 20260501192109 | 62 | 145 | 3.0 | 7.0 | 0.00 | 0.00 | 0.00 | 76 | 1058.3 |
| 20260501192012 | 62 | 145 | 3.0 | 7.0 | 0.00 | 0.00 | 0.00 | 76 | 1058.3 |
| 20260501191906 | 62 | 145 | 2.0 | 7.0 | 0.00 | 0.00 | 0.00 | 76 | 1058.3 |
| 20260501191842 | 62 | 146 | 2.0 | 7.0 | 0.00 | 0.00 | 0.00 | 76 | 1058.2 |
| 20260501191835 | 62 | 145 | 2.0 | 7.0 | 0.00 | 0.00 | 0.00 | 76 | 1058.2 |
| 20260501191822 | 62 | 120 | 2.0 | 7.0 | 0.00 | 0.00 | 0.00 | 76 | 1058.2 |
| 20260501191535 | 62 | 135 | 2.0 | 8.0 | 0.00 | 0.00 | 0.00 | 75 | 1058.2 |
| 20260501191527 | 62 | 135 | 2.0 | 8.0 | 0.00 | 0.00 | 0.00 | 75 | 1058.2 |
| 20260501191205 | 62 | 135 | 3.0 | 8.0 | 0.00 | 0.00 | 0.00 | 75 | 1058.2 |
| 20260501191128 | 62 | 135 | 3.0 | 8.0 | 0.00 | 0.00 | 0.00 | 75 | 1058.2 |
| 20260501191115 | 62 | 135 | 3.0 | 8.0 | 0.00 | 0.00 | 0.00 | 75 | 1058.2 |
| 20260501191102 | 62 | 135 | 3.0 | 8.0 | 0.00 | 0.00 | 0.00 | 74 | 1058.2 |
| 20260501190839 | 62 | 135 | 3.0 | 8.0 | 0.00 | 0.00 | 0.00 | 74 | 1058.1 |
| 20260501190822 | 62 | 139 | 3.0 | 8.0 | 0.00 | 0.00 | 0.00 | 74 | 1058.2 |
| 20260501190505 | 62 | 143 | 2.0 | 5.0 | 0.00 | 0.00 | 0.00 | 74 | 1058.1 |
| 20260501190425 | 62 | 143 | 2.0 | 5.0 | 0.00 | 0.00 | 0.00 | 74 | 1058.1 |
| 20260501190416 | 62 | 143 | 2.0 | 5.0 | 0.00 | 0.00 | 0.00 | 74 | 1058.1 |
| 20260501190403 | 62 | 143 | 2.0 | 5.0 | 0.00 | 0.00 | 0.00 | 73 | 1058.1 |
| 20260501190351 | 63 | 143 | 2.0 | 5.0 | 0.00 | 0.00 | 0.00 | 73 | 1058.1 |
| 20260501190128 | 63 | 143 | 2.0 | 5.0 | 0.00 | 0.00 | 0.00 | 73 | 1058.1 |
| 20260501185805 | 63 | 143 | 2.0 | 5.0 | 0.00 | 0.00 | 0.00 | 73 | 1058.1 |
| 20260501185704 | 63 | 143 | 2.0 | 5.0 | 0.00 | 0.00 | 0.00 | 73 | 1058.0 |
| 20260501185618 | 63 | 143 | 2.0 | 5.0 | 0.00 | 0.00 | 0.00 | 73 | 1058.0 |
| 20260501185603 | 63 | 143 | 2.0 | 8.0 | 0.00 | 0.00 | 0.00 | 73 | 1058.0 |
| 20260501185503 | 63 | 143 | 2.0 | 8.0 | 0.00 | 0.00 | 0.00 | 73 | 1058.0 |
| 20260501185404 | 63 | 143 | 2.0 | 8.0 | 0.00 | 0.00 | 0.00 | 73 | 1058.0 |
| 20260501185306 | 63 | 145 | 3.0 | 8.0 | 0.00 | 0.00 | 0.00 | 73 | 1058.0 |
| 20260501185203 | 63 | 144 | 3.0 | 8.0 | 0.00 | 0.00 | 0.00 | 72 | 1057.9 |
| 20260501185104 | 63 | 145 | 3.0 | 8.0 | 0.00 | 0.00 | 0.00 | 72 | 1058.0 |
| 20260501185003 | 63 | 143 | 3.0 | 8.0 | 0.00 | 0.00 | 0.00 | 72 | 1058.0 |
| 20260501184928 | 63 | 143 | 3.0 | 8.0 | 0.00 | 0.00 | 0.00 | 72 | 1058.0 |
| 20260501184920 | 63 | 143 | 3.0 | 8.0 | 0.00 | 0.00 | 0.00 | 72 | 1057.9 |
| 20260501184909 | 63 | 143 | 3.0 | 8.0 | 0.00 | 0.00 | 0.00 | 72 | 1057.9 |
| 20260501184857 | 63 | 143 | 3.0 | 8.0 | 0.00 | 0.00 | 0.00 | 72 | 1057.9 |
| 20260501184631 | 63 | 81 | 3.0 | 8.0 | 0.00 | 0.00 | 0.00 | 72 | 1057.9 |
| 20260501184303 | 63 | 121 | 3.0 | 8.0 | 0.00 | 0.00 | 0.00 | 71 | 1057.9 |
| 20260501184203 | 63 | 121 | 2.0 | 8.0 | 0.00 | 0.00 | 0.00 | 71 | 1057.9 |
| 20260501184137 | 63 | 121 | 2.0 | 8.0 | 0.00 | 0.00 | 0.00 | 71 | 1057.9 |
| 20260501184127 | 63 | 120 | 2.0 | 8.0 | 0.00 | 0.00 | 0.00 | 71 | 1057.9 |
| 20260501183801 | 63 | 122 | 3.0 | 7.0 | 0.00 | 0.00 | 0.00 | 71 | 1057.9 |
| 20260501183701 | 63 | 120 | 3.0 | 7.0 | 0.00 | 0.00 | 0.00 | 70 | 1057.9 |
| 20260501183618 | 63 | 121 | 2.0 | 7.0 | 0.00 | 0.00 | 0.00 | 70 | 1057.8 |
| 20260501183559 | 63 | 121 | 2.0 | 7.0 | 0.00 | 0.00 | 0.00 | 70 | 1057.8 |
| 20260501183459 | 63 | 120 | 3.0 | 7.0 | 0.00 | 0.00 | 0.00 | 70 | 1057.8 |
| 20260501183404 | 63 | 120 | 3.0 | 7.0 | 0.00 | 0.00 | 0.00 | 70 | 1057.8 |
| 20260501183354 | 63 | 120 | 3.0 | 7.0 | 0.00 | 0.00 | 0.00 | 70 | 1057.8 |
| 20260501183343 | 63 | 120 | 3.0 | 7.0 | 0.00 | 0.00 | 0.00 | 70 | 1057.8 |
| 20260501183053 | 63 | 121 | 3.0 | 7.0 | 0.00 | 0.00 | 0.00 | 70 | 1057.8 |
| 20260501182952 | 63 | 120 | 3.0 | 7.0 | 0.00 | 0.00 | 0.00 | 70 | 1057.8 |
| 20260501182922 | 63 | 119 | 3.0 | 7.0 | 0.00 | 0.00 | 0.00 | 69 | 1057.8 |
| 20260501182912 | 63 | 119 | 3.0 | 7.0 | 0.00 | 0.00 | 0.00 | 69 | 1057.9 |
| 20260501182618 | 63 | 119 | 3.0 | 7.0 | 0.00 | 0.00 | 0.00 | 69 | 1057.8 |
| 20260501182547 | 63 | 119 | 3.0 | 7.0 | 0.00 | 0.00 | 0.00 | 69 | 1057.8 |
| 20260501182446 | 63 | 120 | 3.0 | 8.0 | 0.00 | 0.00 | 0.00 | 69 | 1057.8 |
| 20260501182341 | 63 | 119 | 3.0 | 8.0 | 0.00 | 0.00 | 0.00 | 69 | 1057.9 |
| 20260501182239 | 63 | 115 | 3.0 | 8.0 | 0.00 | 0.00 | 0.00 | 69 | 1057.8 |
| 20260501182118 | 63 | 116 | 3.0 | 8.0 | 0.00 | 0.00 | 0.00 | 69 | 1057.8 |
| 20260501182039 | 63 | 116 | 3.0 | 8.0 | 0.00 | 0.00 | 0.00 | 69 | 1057.8 |
| 20260501181936 | 63 | 116 | 4.0 | 8.0 | 0.00 | 0.00 | 0.00 | 69 | 1057.7 |
| 20260501181832 | 63 | 116 | 4.0 | 8.0 | 0.00 | 0.00 | 0.00 | 68 | 1057.8 |
| 20260501181732 | 64 | 116 | 4.0 | 8.0 | 0.00 | 0.00 | 0.00 | 68 | 1057.7 |
| 20260501181632 | 64 | 116 | 4.0 | 8.0 | 0.00 | 0.00 | 0.00 | 68 | 1057.7 |
| 20260501181618 | 64 | 115 | 4.0 | 8.0 | 0.00 | 0.00 | 0.00 | 68 | 1057.7 |
| 20260501181531 | 64 | 114 | 4.0 | 8.0 | 0.00 | 0.00 | 0.00 | 68 | 1057.6 |
| 20260501181430 | 64 | 114 | 5.0 | 8.0 | 0.00 | 0.00 | 0.00 | 68 | 1057.6 |
| 20260501181333 | 64 | 114 | 5.0 | 8.0 | 0.00 | 0.00 | 0.00 | 68 | 1057.6 |
| 20260501181231 | 64 | 112 | 4.0 | 8.0 | 0.00 | 0.00 | 0.00 | 68 | 1057.6 |
| 20260501181119 | 64 | 111 | 4.0 | 8.0 | 0.00 | 0.00 | 0.00 | 68 | 1057.6 |
| 20260501181028 | 64 | 108 | 4.0 | 8.0 | 0.00 | 0.00 | 0.00 | 68 | 1057.6 |
| 20260501180924 | 64 | 128 | 4.0 | 8.0 | 0.00 | 0.00 | 0.00 | 67 | 1057.6 |
| 20260501180819 | 64 | 117 | 4.0 | 9.0 | 0.00 | 0.00 | 0.00 | 68 | 1057.6 |
| 20260501180719 | 64 | 137 | 4.0 | 9.0 | 0.00 | 0.00 | 0.00 | 67 | 1057.5 |
| 20260501180619 | 64 | 136 | 4.0 | 9.0 | 0.00 | 0.00 | 0.00 | 67 | 1057.5 |
| 20260501180521 | 64 | 141 | 3.0 | 9.0 | 0.00 | 0.00 | 0.00 | 67 | 1057.5 |
| 20260501180418 | 64 | 150 | 3.0 | 9.0 | 0.00 | 0.00 | 0.00 | 67 | 1057.5 |
| 20260501180310 | 64 | 95 | 3.0 | 9.0 | 0.00 | 0.00 | 0.00 | 67 | 1057.4 |
| 20260501180239 | 64 | 89 | 3.0 | 9.0 | 0.00 | 0.00 | 0.00 | 67 | 1057.4 |
| 20260501180214 | 64 | 89 | 3.0 | 9.0 | 0.00 | 0.00 | 0.00 | 67 | 1057.4 |
| 20260501180205 | 64 | 88 | 3.0 | 9.0 | 0.00 | 0.00 | 0.00 | 67 | 1057.4 |
| 20260501180147 | 64 | 87 | 3.0 | 9.0 | 0.00 | 0.00 | 0.00 | 67 | 1057.4 |
| 20260501180139 | 64 | 130 | 3.0 | 7.0 | 0.00 | 0.00 | 0.00 | 68 | 1057.3 |
| 20260501180131 | 64 | 126 | 3.0 | 5.0 | 0.00 | 0.00 | 0.00 | 68 | 1057.3 |
| 20260501180117 | 64 | 127 | 3.0 | 5.0 | 0.00 | 0.00 | 0.00 | 68 | 1057.3 |
| 20260501180106 | 64 | 127 | 3.0 | 5.0 | 0.00 | 0.00 | 0.00 | 68 | 1057.3 |
| 20260501180056 | 64 | 125 | 3.0 | 7.0 | 0.00 | 0.00 | 0.00 | 67 | 1057.3 |
| 20260501180029 | 64 | 125 | 3.0 | 8.0 | 0.00 | 0.00 | 0.00 | 67 | 1057.3 |
| 20260501175058 | 65 | 127 | 3.0 | 8.0 | 0.00 | 0.00 | 0.00 | 67 | 1057.3 |
| 20260501175050 | 65 | 127 | 3.0 | 8.0 | 0.00 | 0.00 | 0.00 | 67 | 1057.3 |
| 20260501175041 | 65 | 127 | 3.0 | 8.0 | 0.00 | 0.00 | 0.00 | 67 | 1057.3 |
| 20260501174511 | 65 | 127 | 3.0 | 8.0 | 0.00 | 0.00 | 0.00 | 67 | 1057.3 |
| 20260501174403 | 65 | 120 | 3.0 | 8.0 | 0.00 | 0.00 | 0.00 | 68 | 1057.4 |
| 20260501174342 | 65 | 174 | 3.0 | 8.0 | 0.00 | 0.00 | 0.00 | 67 | 1057.3 |
| 20260501174335 | 65 | 177 | 3.0 | 8.0 | 0.00 | 0.00 | 0.00 | 67 | 1057.3 |
| 20260501174323 | 65 | 177 | 3.0 | 8.0 | 0.00 | 0.00 | 0.00 | 67 | 1057.2 |
| 20260501174319 | 65 | 177 | 3.0 | 8.0 | 0.00 | 0.00 | 0.00 | 67 | 1057.2 |
| 20260501174310 | 65 | 177 | 3.0 | 8.0 | 0.00 | 0.00 | 0.00 | 67 | 1057.3 |
| 20260501174256 | 65 | 179 | 3.0 | 8.0 | 0.00 | 0.00 | 0.00 | 67 | 1057.3 |
| 20260501174246 | 65 | 179 | 3.0 | 8.0 | 0.00 | 0.00 | 0.00 | 67 | 1057.2 |
| 20260501173449 | 65 | 111 | 3.0 | 9.0 | 0.00 | 0.00 | 0.00 | 67 | 1057.2 |
| 20260501173348 | 65 | 112 | 3.0 | 9.0 | 0.00 | 0.00 | 0.00 | 67 | 1057.2 |
| 20260501173248 | 65 | 112 | 3.0 | 9.0 | 0.00 | 0.00 | 0.00 | 67 | 1057.2 |
| 20260501173148 | 65 | 110 | 4.0 | 9.0 | 0.00 | 0.00 | 0.00 | 66 | 1057.2 |
| 20260501173110 | 65 | 110 | 4.0 | 9.0 | 0.00 | 0.00 | 0.00 | 66 | 1057.2 |
| 20260501173045 | 65 | 110 | 4.0 | 9.0 | 0.00 | 0.00 | 0.00 | 66 | 1057.1 |
| 20260501173028 | 65 | 109 | 4.0 | 9.0 | 0.00 | 0.00 | 0.00 | 66 | 1057.1 |
| 20260501173003 | 65 | 108 | 4.0 | 9.0 | 0.00 | 0.00 | 0.00 | 66 | 1057.1 |
| 20260501172642 | 65 | 158 | 3.0 | 9.0 | 0.00 | 0.00 | 0.00 | 65 | 1057.1 |
| 20260501172609 | 65 | 158 | 3.0 | 9.0 | 0.00 | 0.00 | 0.00 | 65 | 1057.1 |
| 20260501172537 | 65 | 158 | 3.0 | 9.0 | 0.00 | 0.00 | 0.00 | 65 | 1057.1 |
| 20260501172506 | 65 | 157 | 3.0 | 9.0 | 0.00 | 0.00 | 0.00 | 65 | 1057.1 |
| 20260501172132 | 65 | 144 | 3.0 | 5.0 | 0.00 | 0.00 | 0.00 | 66 | 1057.0 |
| 20260501172108 | 65 | 145 | 3.0 | 5.0 | 0.00 | 0.00 | 0.00 | 66 | 1057.0 |
| 20260501172028 | 65 | 142 | 3.0 | 9.0 | 0.00 | 0.00 | 0.00 | 66 | 1057.0 |
| 20260501171959 | 65 | 140 | 3.0 | 9.0 | 0.00 | 0.00 | 0.00 | 66 | 1057.1 |
| 20260501171949 | 65 | 140 | 3.0 | 9.0 | 0.00 | 0.00 | 0.00 | 66 | 1057.0 |
| 20260501171609 | 65 | 140 | 3.0 | 9.0 | 0.00 | 0.00 | 0.00 | 66 | 1057.0 |
| 20260501171522 | 65 | 138 | 3.0 | 9.0 | 0.00 | 0.00 | 0.00 | 66 | 1057.0 |
| 20260501171421 | 65 | 139 | 4.0 | 9.0 | 0.00 | 0.00 | 0.00 | 65 | 1057.0 |
| 20260501171348 | 65 | 138 | 4.0 | 9.0 | 0.00 | 0.00 | 0.00 | 65 | 1057.0 |
| 20260501171339 | 66 | 138 | 3.0 | 9.0 | 0.00 | 0.00 | 0.00 | 65 | 1057.0 |
| 20260501171109 | 66 | 139 | 3.0 | 9.0 | 0.00 | 0.00 | 0.00 | 65 | 1057.0 |
| 20260501171057 | 66 | 137 | 3.0 | 8.0 | 0.00 | 0.00 | 0.00 | 65 | 1057.0 |
| 20260501171047 | 66 | 137 | 3.0 | 8.0 | 0.00 | 0.00 | 0.00 | 65 | 1057.0 |
| 20260501170718 | 66 | 129 | 3.0 | 8.0 | 0.00 | 0.00 | 0.00 | 65 | 1057.0 |
| 20260501170608 | 66 | 128 | 3.0 | 8.0 | 0.00 | 0.00 | 0.00 | 65 | 1057.0 |
| 20260501170519 | 66 | 129 | 3.0 | 8.0 | 0.00 | 0.00 | 0.00 | 66 | 1057.0 |
| 20260501170418 | 66 | 129 | 3.0 | 8.0 | 0.00 | 0.00 | 0.00 | 66 | 1057.0 |
| 20260501170344 | 66 | 116 | 3.0 | 8.0 | 0.00 | 0.00 | 0.00 | 66 | 1057.0 |
| 20260501170336 | 66 | 116 | 3.0 | 8.0 | 0.00 | 0.00 | 0.00 | 65 | 1057.0 |
| 20260501170323 | 66 | 116 | 3.0 | 8.0 | 0.00 | 0.00 | 0.00 | 65 | 1057.0 |
| 20260501170027 | 66 | 116 | 4.0 | 8.0 | 0.00 | 0.00 | 0.00 | 65 | 1056.9 |
| 20260501165915 | 66 | 127 | 4.0 | 9.0 | 0.00 | 0.00 | 0.00 | 65 | 1057.0 |
| 20260501165816 | 66 | 118 | 4.0 | 9.0 | 0.00 | 0.00 | 0.00 | 65 | 1056.9 |
| 20260501165715 | 66 | 58 | 4.0 | 9.0 | 0.00 | 0.00 | 0.00 | 64 | 1057.0 |
| 20260501165602 | 66 | 58 | 4.0 | 9.0 | 0.00 | 0.00 | 0.00 | 64 | 1057.0 |
| 20260501165511 | 66 | 58 | 4.0 | 9.0 | 0.00 | 0.00 | 0.00 | 64 | 1056.9 |
| 20260501165409 | 66 | 47 | 4.0 | 9.0 | 0.00 | 0.00 | 0.00 | 65 | 1057.0 |
| 20260501165307 | 66 | 94 | 4.0 | 9.0 | 0.00 | 0.00 | 0.00 | 65 | 1057.0 |
| 20260501165207 | 66 | 94 | 5.0 | 9.0 | 0.00 | 0.00 | 0.00 | 64 | 1056.9 |
| 20260501165101 | 66 | 97 | 5.0 | 10.0 | 0.00 | 0.00 | 0.00 | 64 | 1056.9 |
| 20260501165054 | 66 | 100 | 5.0 | 10.0 | 0.00 | 0.00 | 0.00 | 65 | 1057.0 |
| 20260501165044 | 66 | 79 | 5.0 | 10.0 | 0.00 | 0.00 | 0.00 | 64 | 1056.9 |
| 20260501164704 | 66 | 84 | 5.0 | 10.0 | 0.00 | 0.00 | 0.00 | 64 | 1057.0 |
| 20260501164605 | 66 | 81 | 5.0 | 10.0 | 0.00 | 0.00 | 0.00 | 64 | 1056.9 |